<?xml version="1.0" encoding="UTF-8"?>
<gpx creator="Patrick Hooper" version="1.1" xmlns="http://www.topografix.com/GPX/1/1" xmlns:xsi="http://www.w3.org/2001/XMLSchema-instance" xsi:schemaLocation="http://www.topografix.com/GPX/1/1 http://www.topografix.com/GPX/1/1/gpx.xsd http://www.garmin.com/xmlschemas/GpxExtensions/v3 http://www.garmin.com/xmlschemas/GpxExtensionsv3.xsd http://www.garmin.com/xmlschemas/TrackPointExtension/v1 http://www.garmin.com/xmlschemas/TrackPointExtensionv1.xsd">
  <metadata>
    <name>Activity</name>
  </metadata>
  <trk>
    <name>a</name>
    <trkseg>
      <trkpt lat="32.483377585892896" lon="35.024987854253034">
        <ele>65.5</ele>
        <time>2026-06-10T15:13:56.042Z</time>
      </trkpt>
      <trkpt lat="32.48334543742266" lon="35.02491287942781">
        <ele>62</ele>
        <time>2026-06-10T15:13:57.042Z</time>
      </trkpt>
      <trkpt lat="32.48309547043805" lon="35.02479963060021">
        <ele>62</ele>
        <time>2026-06-10T15:13:58.042Z</time>
      </trkpt>
      <trkpt lat="32.48619677468084" lon="35.025003962777646">
        <ele>60</ele>
        <time>2026-06-10T15:13:59.042Z</time>
      </trkpt>
      <trkpt lat="32.486689816862864" lon="35.02499464955169">
        <ele>60</ele>
        <time>2026-06-10T15:14:00.042Z</time>
      </trkpt>
      <trkpt lat="32.48678294912241" lon="35.02499297317102">
        <ele>60</ele>
        <time>2026-06-10T15:14:01.042Z</time>
      </trkpt>
      <trkpt lat="32.487359996602535" lon="35.0250669201851">
        <ele>63</ele>
        <time>2026-06-10T15:14:02.042Z</time>
      </trkpt>
      <trkpt lat="32.487687822156126" lon="35.02504587229444">
        <ele>63</ele>
        <time>2026-06-10T15:14:03.042Z</time>
      </trkpt>
      <trkpt lat="32.49254802225265" lon="35.02527013477542">
        <ele>82</ele>
        <time>2026-06-10T15:14:04.042Z</time>
      </trkpt>
      <trkpt lat="32.494473997380005" lon="35.025358796686504">
        <ele>72</ele>
        <time>2026-06-10T15:14:05.042Z</time>
      </trkpt>
      <trkpt lat="32.497113924409014" lon="35.02555083540568">
        <ele>70</ele>
        <time>2026-06-10T15:14:06.042Z</time>
      </trkpt>
      <trkpt lat="32.49744547525299" lon="35.025556795870294">
        <ele>70</ele>
        <time>2026-06-10T15:14:07.042Z</time>
      </trkpt>
      <trkpt lat="32.49767774710829" lon="35.02556070742519">
        <ele>70</ele>
        <time>2026-06-10T15:14:08.042Z</time>
      </trkpt>
      <trkpt lat="32.499501835543704" lon="35.02564489898782">
        <ele>77</ele>
        <time>2026-06-10T15:14:09.042Z</time>
      </trkpt>
      <trkpt lat="32.500615883632356" lon="35.02568792609173">
        <ele>91</ele>
        <time>2026-06-10T15:14:10.042Z</time>
      </trkpt>
      <trkpt lat="32.50102063643234" lon="35.02570431736941">
        <ele>91</ele>
        <time>2026-06-10T15:14:11.042Z</time>
      </trkpt>
      <trkpt lat="32.501034978800305" lon="35.02570487616297">
        <ele>91</ele>
        <time>2026-06-10T15:14:12.042Z</time>
      </trkpt>
      <trkpt lat="32.50212686141119" lon="35.02571288553729">
        <ele>97</ele>
        <time>2026-06-10T15:14:13.042Z</time>
      </trkpt>
      <trkpt lat="32.502574455050556" lon="35.025782548467426">
        <ele>97</ele>
        <time>2026-06-10T15:14:14.042Z</time>
      </trkpt>
      <trkpt lat="32.50267727306509" lon="35.0258203601648">
        <ele>93</ele>
        <time>2026-06-10T15:14:15.042Z</time>
      </trkpt>
      <trkpt lat="32.50277990481511" lon="35.02578496990618">
        <ele>97</ele>
        <time>2026-06-10T15:14:16.042Z</time>
      </trkpt>
      <trkpt lat="32.50376785182434" lon="35.025800988654815">
        <ele>87</ele>
        <time>2026-06-10T15:14:17.042Z</time>
      </trkpt>
      <trkpt lat="32.50458089645015" lon="35.025892817062726">
        <ele>82</ele>
        <time>2026-06-10T15:14:18.042Z</time>
      </trkpt>
      <trkpt lat="32.50493293639123" lon="35.02585295645564">
        <ele>82</ele>
        <time>2026-06-10T15:14:19.042Z</time>
      </trkpt>
      <trkpt lat="32.50591883449075" lon="35.02578571496425">
        <ele>78</ele>
        <time>2026-06-10T15:14:20.042Z</time>
      </trkpt>
      <trkpt lat="32.50614067553298" lon="35.02580396888712">
        <ele>78</ele>
        <time>2026-06-10T15:14:21.042Z</time>
      </trkpt>
      <trkpt lat="32.50648545115781" lon="35.025788136402994">
        <ele>75</ele>
        <time>2026-06-10T15:14:22.042Z</time>
      </trkpt>
      <trkpt lat="32.506780866685084" lon="35.025774539093106">
        <ele>75</ele>
        <time>2026-06-10T15:14:23.042Z</time>
      </trkpt>
      <trkpt lat="32.50700866819192" lon="35.025763922015514">
        <ele>75</ele>
        <time>2026-06-10T15:14:24.042Z</time>
      </trkpt>
      <trkpt lat="32.50837994758144" lon="35.02570096460806">
        <ele>73</ele>
        <time>2026-06-10T15:14:25.042Z</time>
      </trkpt>
      <trkpt lat="32.50875564311644" lon="35.025624968684276">
        <ele>68</ele>
        <time>2026-06-10T15:14:26.042Z</time>
      </trkpt>
      <trkpt lat="32.50883598435324" lon="35.02562539242498">
        <ele>68</ele>
        <time>2026-06-10T15:14:27.042Z</time>
      </trkpt>
      <trkpt lat="32.50883598435324" lon="35.02562539242498">
        <ele>68</ele>
        <time>2026-06-10T15:14:28.042Z</time>
      </trkpt>
      <trkpt lat="32.509108800644626" lon="35.02562683132947">
        <ele>68</ele>
        <time>2026-06-10T15:14:29.042Z</time>
      </trkpt>
      <trkpt lat="32.509304937183224" lon="35.025661849059055">
        <ele>68</ele>
        <time>2026-06-10T15:14:30.042Z</time>
      </trkpt>
      <trkpt lat="32.5095174649995" lon="35.025661849059055">
        <ele>68</ele>
        <time>2026-06-10T15:14:31.042Z</time>
      </trkpt>
      <trkpt lat="32.50958470649089" lon="35.025758334079946">
        <ele>72</ele>
        <time>2026-06-10T15:14:32.042Z</time>
      </trkpt>
      <trkpt lat="32.509711738892904" lon="35.02588536648196">
        <ele>72</ele>
        <time>2026-06-10T15:14:33.042Z</time>
      </trkpt>
      <trkpt lat="32.50981548823004" lon="35.02598948834813">
        <ele>72</ele>
        <time>2026-06-10T15:14:34.042Z</time>
      </trkpt>
      <trkpt lat="32.509958967869075" lon="35.02635335306897">
        <ele>72.5</ele>
        <time>2026-06-10T15:14:35.042Z</time>
      </trkpt>
      <trkpt lat="32.509958967869075" lon="35.02635335306897">
        <ele>72.5</ele>
        <time>2026-06-10T15:14:36.042Z</time>
      </trkpt>
      <trkpt lat="32.50981548823004" lon="35.02598948834813">
        <ele>72</ele>
        <time>2026-06-10T15:14:37.042Z</time>
      </trkpt>
      <trkpt lat="32.509711738892904" lon="35.02588536648196">
        <ele>72</ele>
        <time>2026-06-10T15:14:38.042Z</time>
      </trkpt>
      <trkpt lat="32.50958470649089" lon="35.025758334079946">
        <ele>72</ele>
        <time>2026-06-10T15:14:39.042Z</time>
      </trkpt>
      <trkpt lat="32.5095174649995" lon="35.025661849059055">
        <ele>68</ele>
        <time>2026-06-10T15:14:40.042Z</time>
      </trkpt>
      <trkpt lat="32.50962121433663" lon="35.0256495556008">
        <ele>72</ele>
        <time>2026-06-10T15:14:41.042Z</time>
      </trkpt>
      <trkpt lat="32.509827967952816" lon="35.025624968684276">
        <ele>72</ele>
        <time>2026-06-10T15:14:42.042Z</time>
      </trkpt>
      <trkpt lat="32.50988198466335" lon="35.02562236098101">
        <ele>72</ele>
        <time>2026-06-10T15:14:43.042Z</time>
      </trkpt>
      <trkpt lat="32.5099985862523" lon="35.025623851097166">
        <ele>72</ele>
        <time>2026-06-10T15:14:44.042Z</time>
      </trkpt>
      <trkpt lat="32.510238867481924" lon="35.02558641192883">
        <ele>72</ele>
        <time>2026-06-10T15:14:45.042Z</time>
      </trkpt>
      <trkpt lat="32.51085260907231" lon="35.025613420284095">
        <ele>77</ele>
        <time>2026-06-10T15:14:46.042Z</time>
      </trkpt>
      <trkpt lat="32.51117670933552" lon="35.02559386250959">
        <ele>77</ele>
        <time>2026-06-10T15:14:47.042Z</time>
      </trkpt>
      <trkpt lat="32.51202495795544" lon="35.02549029943698">
        <ele>82</ele>
        <time>2026-06-10T15:14:48.042Z</time>
      </trkpt>
      <trkpt lat="32.512196135048484" lon="35.025474839481895">
        <ele>85</ele>
        <time>2026-06-10T15:14:49.042Z</time>
      </trkpt>
      <trkpt lat="32.51243697507166" lon="35.02546422240431">
        <ele>85</ele>
        <time>2026-06-10T15:14:50.042Z</time>
      </trkpt>
      <trkpt lat="32.51255823327359" lon="35.02544783112663">
        <ele>85</ele>
        <time>2026-06-10T15:14:51.042Z</time>
      </trkpt>
      <trkpt lat="32.51361994103238" lon="35.0254729768367">
        <ele>90</ele>
        <time>2026-06-10T15:14:52.042Z</time>
      </trkpt>
      <trkpt lat="32.51390269057235" lon="35.02545602676547">
        <ele>97</ele>
        <time>2026-06-10T15:14:53.042Z</time>
      </trkpt>
      <trkpt lat="32.51424187826161" lon="35.02549886760486">
        <ele>97</ele>
        <time>2026-06-10T15:14:54.042Z</time>
      </trkpt>
      <trkpt lat="32.51432445115831" lon="35.02549886760486">
        <ele>97</ele>
        <time>2026-06-10T15:14:55.042Z</time>
      </trkpt>
      <trkpt lat="32.51432445115831" lon="35.02549886760486">
        <ele>97</ele>
        <time>2026-06-10T15:14:56.042Z</time>
      </trkpt>
      <trkpt lat="32.51440858500619" lon="35.02549886760486">
        <ele>97</ele>
        <time>2026-06-10T15:14:57.042Z</time>
      </trkpt>
      <trkpt lat="32.51481687683203" lon="35.02549886760486">
        <ele>101</ele>
        <time>2026-06-10T15:14:58.042Z</time>
      </trkpt>
      <trkpt lat="32.51503257114513" lon="35.025480054888426">
        <ele>101</ele>
        <time>2026-06-10T15:14:59.042Z</time>
      </trkpt>
      <trkpt lat="32.51623230091256" lon="35.025375001699665">
        <ele>101</ele>
        <time>2026-06-10T15:15:00.042Z</time>
      </trkpt>
      <trkpt lat="32.51872396138438" lon="35.025156885947816">
        <ele>105</ele>
        <time>2026-06-10T15:15:01.042Z</time>
      </trkpt>
      <trkpt lat="32.518874835644844" lon="35.02516582664473">
        <ele>109</ele>
        <time>2026-06-10T15:15:02.042Z</time>
      </trkpt>
      <trkpt lat="32.51924699215398" lon="35.02511274125679">
        <ele>109</ele>
        <time>2026-06-10T15:15:03.042Z</time>
      </trkpt>
      <trkpt lat="32.51976797401387" lon="35.02511199619872">
        <ele>105</ele>
        <time>2026-06-10T15:15:04.042Z</time>
      </trkpt>
      <trkpt lat="32.51981882422758" lon="35.02509187963065">
        <ele>105</ele>
        <time>2026-06-10T15:15:05.042Z</time>
      </trkpt>
      <trkpt lat="32.520052958728066" lon="35.025089830720944">
        <ele>105</ele>
        <time>2026-06-10T15:15:06.042Z</time>
      </trkpt>
      <trkpt lat="32.5203567561587" lon="35.02511199619872">
        <ele>105</ele>
        <time>2026-06-10T15:15:07.042Z</time>
      </trkpt>
      <trkpt lat="32.52055084378758" lon="35.025070831739995">
        <ele>105</ele>
        <time>2026-06-10T15:15:08.042Z</time>
      </trkpt>
      <trkpt lat="32.52133594873553" lon="35.02502482440378">
        <ele>106</ele>
        <time>2026-06-10T15:15:09.042Z</time>
      </trkpt>
      <trkpt lat="32.52156486782949" lon="35.02498682644189">
        <ele>106</ele>
        <time>2026-06-10T15:15:10.042Z</time>
      </trkpt>
      <trkpt lat="32.52199979136191" lon="35.024983873517805">
        <ele>105</ele>
        <time>2026-06-10T15:15:11.042Z</time>
      </trkpt>
      <trkpt lat="32.52199979136191" lon="35.024983873517805">
        <ele>105</ele>
        <time>2026-06-10T15:15:12.042Z</time>
      </trkpt>
      <trkpt lat="32.52214098398703" lon="35.024982914886984">
        <ele>104</ele>
        <time>2026-06-10T15:15:13.042Z</time>
      </trkpt>
      <trkpt lat="32.52231886660275" lon="35.02496093567373">
        <ele>100</ele>
        <time>2026-06-10T15:15:14.042Z</time>
      </trkpt>
      <trkpt lat="32.52258895015543" lon="35.02496391590604">
        <ele>100</ele>
        <time>2026-06-10T15:15:15.042Z</time>
      </trkpt>
      <trkpt lat="32.52281786924939" lon="35.02500694300995">
        <ele>104</ele>
        <time>2026-06-10T15:15:16.042Z</time>
      </trkpt>
      <trkpt lat="32.52304082787873" lon="35.02507586088201">
        <ele>96</ele>
        <time>2026-06-10T15:15:17.042Z</time>
      </trkpt>
      <trkpt lat="32.52383897134302" lon="35.02538692262888">
        <ele>86</ele>
        <time>2026-06-10T15:15:18.042Z</time>
      </trkpt>
      <trkpt lat="32.52401294240384" lon="35.025429949732796">
        <ele>86</ele>
        <time>2026-06-10T15:15:19.042Z</time>
      </trkpt>
      <trkpt lat="32.52425974289164" lon="35.02543944922327">
        <ele>86</ele>
        <time>2026-06-10T15:15:20.042Z</time>
      </trkpt>
      <trkpt lat="32.524427008429775" lon="35.02616886108001">
        <ele>89</ele>
        <time>2026-06-10T15:15:21.042Z</time>
      </trkpt>
      <trkpt lat="32.52480233143573" lon="35.027414784448176">
        <ele>84</ele>
        <time>2026-06-10T15:15:22.042Z</time>
      </trkpt>
      <trkpt lat="32.524901982953445" lon="35.028070435555364">
        <ele>86</ele>
        <time>2026-06-10T15:15:23.042Z</time>
      </trkpt>
      <trkpt lat="32.52497388105781" lon="35.02891253744615">
        <ele>87</ele>
        <time>2026-06-10T15:15:24.042Z</time>
      </trkpt>
      <trkpt lat="32.5250772578659" lon="35.02962108767676">
        <ele>86</ele>
        <time>2026-06-10T15:15:25.042Z</time>
      </trkpt>
      <trkpt lat="32.52510594260184" lon="35.02980865604748">
        <ele>86</ele>
        <time>2026-06-10T15:15:26.042Z</time>
      </trkpt>
      <trkpt lat="32.52536187005107" lon="35.02975296295627">
        <ele>86</ele>
        <time>2026-06-10T15:15:27.042Z</time>
      </trkpt>
      <trkpt lat="32.525929976834284" lon="35.02962797946397">
        <ele>84</ele>
        <time>2026-06-10T15:15:28.042Z</time>
      </trkpt>
      <trkpt lat="32.52640085353853" lon="35.029584952360054">
        <ele>81</ele>
        <time>2026-06-10T15:15:29.042Z</time>
      </trkpt>
      <trkpt lat="32.526632939129314" lon="35.029568933611415">
        <ele>81</ele>
        <time>2026-06-10T15:15:30.042Z</time>
      </trkpt>
      <trkpt lat="32.52664411500046" lon="35.029507093791075">
        <ele>81</ele>
        <time>2026-06-10T15:15:31.042Z</time>
      </trkpt>
      <trkpt lat="32.52676425561527" lon="35.02914518183049">
        <ele>81</ele>
        <time>2026-06-10T15:15:32.042Z</time>
      </trkpt>
      <trkpt lat="32.527232710880774" lon="35.02780463608663">
        <ele>80</ele>
        <time>2026-06-10T15:15:33.042Z</time>
      </trkpt>
      <trkpt lat="32.52734335200511" lon="35.02744458677123">
        <ele>82</ele>
        <time>2026-06-10T15:15:34.042Z</time>
      </trkpt>
      <trkpt lat="32.527369056508746" lon="35.02724602879389">
        <ele>82</ele>
        <time>2026-06-10T15:15:35.042Z</time>
      </trkpt>
      <trkpt lat="32.52735639052145" lon="35.027123839269365">
        <ele>82</ele>
        <time>2026-06-10T15:15:36.042Z</time>
      </trkpt>
      <trkpt lat="32.52730460898514" lon="35.02705361754567">
        <ele>82</ele>
        <time>2026-06-10T15:15:37.042Z</time>
      </trkpt>
      <trkpt lat="32.52730460898514" lon="35.02647358983324">
        <ele>80</ele>
        <time>2026-06-10T15:15:38.042Z</time>
      </trkpt>
      <trkpt lat="32.52732062773378" lon="35.025940128250575">
        <ele>80</ele>
        <time>2026-06-10T15:15:39.042Z</time>
      </trkpt>
      <trkpt lat="32.527361978457016" lon="35.025942922218356">
        <ele>80</ele>
        <time>2026-06-10T15:15:40.042Z</time>
      </trkpt>
      <trkpt lat="32.52751341151104" lon="35.02604443638126">
        <ele>80</ele>
        <time>2026-06-10T15:15:41.042Z</time>
      </trkpt>
      <trkpt lat="32.52763075815806" lon="35.026047975407124">
        <ele>80</ele>
        <time>2026-06-10T15:15:42.042Z</time>
      </trkpt>
      <trkpt lat="32.52783844309684" lon="35.02601314394205">
        <ele>80</ele>
        <time>2026-06-10T15:15:43.042Z</time>
      </trkpt>
      <trkpt lat="32.52818657148301" lon="35.026002340599945">
        <ele>85</ele>
        <time>2026-06-10T15:15:44.042Z</time>
      </trkpt>
      <trkpt lat="32.528395187744394" lon="35.025966019018725">
        <ele>85</ele>
        <time>2026-06-10T15:15:45.042Z</time>
      </trkpt>
      <trkpt lat="32.52883551706751" lon="35.02595949976056">
        <ele>90</ele>
        <time>2026-06-10T15:15:46.042Z</time>
      </trkpt>
      <trkpt lat="32.52894261916599" lon="35.02599861530957">
        <ele>90</ele>
        <time>2026-06-10T15:15:47.042Z</time>
      </trkpt>
      <trkpt lat="32.52911286493643" lon="35.02612862794389">
        <ele>90</ele>
        <time>2026-06-10T15:15:48.042Z</time>
      </trkpt>
      <trkpt lat="32.52921735933164" lon="35.02612993179552">
        <ele>90</ele>
        <time>2026-06-10T15:15:49.042Z</time>
      </trkpt>
      <trkpt lat="32.529427651973684" lon="35.026065298007396">
        <ele>90</ele>
        <time>2026-06-10T15:15:50.042Z</time>
      </trkpt>
      <trkpt lat="32.52966178647418" lon="35.026020967051856">
        <ele>98</ele>
        <time>2026-06-10T15:15:51.042Z</time>
      </trkpt>
      <trkpt lat="32.52980576894743" lon="35.02601984946474">
        <ele>98</ele>
        <time>2026-06-10T15:15:52.042Z</time>
      </trkpt>
      <trkpt lat="32.530306820503775" lon="35.02607498376239">
        <ele>98</ele>
        <time>2026-06-10T15:15:53.042Z</time>
      </trkpt>
      <trkpt lat="32.53044726395117" lon="35.026014447793685">
        <ele>109</ele>
        <time>2026-06-10T15:15:54.042Z</time>
      </trkpt>
      <trkpt lat="32.53066780114177" lon="35.0261014333241">
        <ele>109</ele>
        <time>2026-06-10T15:15:55.042Z</time>
      </trkpt>
      <trkpt lat="32.530769874098226" lon="35.02611354051784">
        <ele>109</ele>
        <time>2026-06-10T15:15:56.042Z</time>
      </trkpt>
      <trkpt lat="32.530940492397704" lon="35.02605635731048">
        <ele>109</ele>
        <time>2026-06-10T15:15:57.042Z</time>
      </trkpt>
      <trkpt lat="32.53166766908022" lon="35.02610590367256">
        <ele>113</ele>
        <time>2026-06-10T15:15:58.042Z</time>
      </trkpt>
      <trkpt lat="32.53191689100676" lon="35.02614483295705">
        <ele>113</ele>
        <time>2026-06-10T15:15:59.042Z</time>
      </trkpt>
      <trkpt lat="32.5321329578489" lon="35.02614595054416">
        <ele>106</ele>
        <time>2026-06-10T15:16:00.042Z</time>
      </trkpt>
      <trkpt lat="32.53238199351092" lon="35.026106834995154">
        <ele>106</ele>
        <time>2026-06-10T15:16:01.042Z</time>
      </trkpt>
      <trkpt lat="32.53277687429138" lon="35.02612266747928">
        <ele>106</ele>
        <time>2026-06-10T15:16:02.042Z</time>
      </trkpt>
      <trkpt lat="32.53288285880274" lon="35.02610087453054">
        <ele>106</ele>
        <time>2026-06-10T15:16:03.042Z</time>
      </trkpt>
      <trkpt lat="32.53300784229505" lon="35.02601593790984">
        <ele>98</ele>
        <time>2026-06-10T15:16:04.042Z</time>
      </trkpt>
      <trkpt lat="32.53305347710222" lon="35.02592429576645">
        <ele>98</ele>
        <time>2026-06-10T15:16:05.042Z</time>
      </trkpt>
      <trkpt lat="32.53307899534134" lon="35.025870837849475">
        <ele>98</ele>
        <time>2026-06-10T15:16:06.042Z</time>
      </trkpt>
      <trkpt lat="32.533322815596826" lon="35.02591088472108">
        <ele>98</ele>
        <time>2026-06-10T15:16:07.042Z</time>
      </trkpt>
      <trkpt lat="32.5334865421091" lon="35.02606213151057">
        <ele>98</ele>
        <time>2026-06-10T15:16:08.042Z</time>
      </trkpt>
      <trkpt lat="32.533868756902265" lon="35.02622474043574">
        <ele>95</ele>
        <time>2026-06-10T15:16:09.042Z</time>
      </trkpt>
      <trkpt lat="32.533953862150696" lon="35.02615430213092">
        <ele>95</ele>
        <time>2026-06-10T15:16:10.042Z</time>
      </trkpt>
      <trkpt lat="32.533953862150696" lon="35.02615430213092">
        <ele>95</ele>
        <time>2026-06-10T15:16:11.042Z</time>
      </trkpt>
      <trkpt lat="32.53412598820312" lon="35.02601184009042">
        <ele>95</ele>
        <time>2026-06-10T15:16:12.042Z</time>
      </trkpt>
      <trkpt lat="32.534587924210456" lon="35.02609696297564">
        <ele>97</ele>
        <time>2026-06-10T15:16:13.042Z</time>
      </trkpt>
      <trkpt lat="32.53485595885342" lon="35.02607982663989">
        <ele>97</ele>
        <time>2026-06-10T15:16:14.042Z</time>
      </trkpt>
      <trkpt lat="32.53583999430776" lon="35.026409887367706">
        <ele>103</ele>
        <time>2026-06-10T15:16:15.042Z</time>
      </trkpt>
      <trkpt lat="32.536071893634016" lon="35.026445650155374">
        <ele>103</ele>
        <time>2026-06-10T15:16:16.042Z</time>
      </trkpt>
      <trkpt lat="32.53624884492715" lon="35.026409887367706">
        <ele>111</ele>
        <time>2026-06-10T15:16:17.042Z</time>
      </trkpt>
      <trkpt lat="32.53628386265674" lon="35.026416965419436">
        <ele>111</ele>
        <time>2026-06-10T15:16:18.042Z</time>
      </trkpt>
      <trkpt lat="32.536333967812375" lon="35.026442856187586">
        <ele>111</ele>
        <time>2026-06-10T15:16:19.042Z</time>
      </trkpt>
      <trkpt lat="32.53642784512999" lon="35.026540831324624">
        <ele>111</ele>
        <time>2026-06-10T15:16:20.042Z</time>
      </trkpt>
      <trkpt lat="32.536520977389536" lon="35.02660490631919">
        <ele>111</ele>
        <time>2026-06-10T15:16:21.042Z</time>
      </trkpt>
      <trkpt lat="32.53664186306242" lon="35.02664383560368">
        <ele>111</ele>
        <time>2026-06-10T15:16:22.042Z</time>
      </trkpt>
      <trkpt lat="32.536985521100135" lon="35.02665389388771">
        <ele>107</ele>
        <time>2026-06-10T15:16:23.042Z</time>
      </trkpt>
      <trkpt lat="32.537110877121485" lon="35.026677735746155">
        <ele>116</ele>
        <time>2026-06-10T15:16:24.042Z</time>
      </trkpt>
      <trkpt lat="32.53716638394817" lon="35.02679098457376">
        <ele>116</ele>
        <time>2026-06-10T15:16:25.042Z</time>
      </trkpt>
      <trkpt lat="32.537196372535746" lon="35.02691019386597">
        <ele>116</ele>
        <time>2026-06-10T15:16:26.042Z</time>
      </trkpt>
      <trkpt lat="32.53724386998811" lon="35.026989915080144">
        <ele>116</ele>
        <time>2026-06-10T15:16:27.042Z</time>
      </trkpt>
      <trkpt lat="32.53746384838515" lon="35.02708397866228">
        <ele>116</ele>
        <time>2026-06-10T15:16:28.042Z</time>
      </trkpt>
      <trkpt lat="32.5382049949066" lon="35.027470850068426">
        <ele>125</ele>
        <time>2026-06-10T15:16:29.042Z</time>
      </trkpt>
      <trkpt lat="32.53863396209405" lon="35.02774074735658">
        <ele>126</ele>
        <time>2026-06-10T15:16:30.042Z</time>
      </trkpt>
      <trkpt lat="32.53880793315488" lon="35.02779495033163">
        <ele>132</ele>
        <time>2026-06-10T15:16:31.042Z</time>
      </trkpt>
      <trkpt lat="32.53895992500245" lon="35.02790689530761">
        <ele>132</ele>
        <time>2026-06-10T15:16:32.042Z</time>
      </trkpt>
      <trkpt lat="32.53904691053287" lon="35.027935952572584">
        <ele>132</ele>
        <time>2026-06-10T15:16:33.042Z</time>
      </trkpt>
      <trkpt lat="32.53927787853654" lon="35.027965941160154">
        <ele>132</ele>
        <time>2026-06-10T15:16:34.042Z</time>
      </trkpt>
      <trkpt lat="32.53934791399571" lon="35.02803094747732">
        <ele>132</ele>
        <time>2026-06-10T15:16:35.042Z</time>
      </trkpt>
      <trkpt lat="32.53949189646897" lon="35.02824794564205">
        <ele>132</ele>
        <time>2026-06-10T15:16:36.042Z</time>
      </trkpt>
      <trkpt lat="32.53964798613596" lon="35.028353930153415">
        <ele>125</ele>
        <time>2026-06-10T15:16:37.042Z</time>
      </trkpt>
      <trkpt lat="32.53978191032518" lon="35.02841893647057">
        <ele>125</ele>
        <time>2026-06-10T15:16:38.042Z</time>
      </trkpt>
      <trkpt lat="32.53995997920543" lon="35.02841893647057">
        <ele>125</ele>
        <time>2026-06-10T15:16:39.042Z</time>
      </trkpt>
      <trkpt lat="32.540044729561615" lon="35.02845190529045">
        <ele>125</ele>
        <time>2026-06-10T15:16:40.042Z</time>
      </trkpt>
      <trkpt lat="32.540111971053" lon="35.02852287207222">
        <ele>125</ele>
        <time>2026-06-10T15:16:41.042Z</time>
      </trkpt>
      <trkpt lat="32.54015890971181" lon="35.02861395542206">
        <ele>125</ele>
        <time>2026-06-10T15:16:42.042Z</time>
      </trkpt>
      <trkpt lat="32.540223729764456" lon="35.02868678484902">
        <ele>125</ele>
        <time>2026-06-10T15:16:43.042Z</time>
      </trkpt>
      <trkpt lat="32.5402729035975" lon="35.0287119305591">
        <ele>125</ele>
        <time>2026-06-10T15:16:44.042Z</time>
      </trkpt>
      <trkpt lat="32.5403978870898" lon="35.02873186086264">
        <ele>112</ele>
        <time>2026-06-10T15:16:45.042Z</time>
      </trkpt>
      <trkpt lat="32.54044463948409" lon="35.02876091812762">
        <ele>112</ele>
        <time>2026-06-10T15:16:46.042Z</time>
      </trkpt>
      <trkpt lat="32.5406389133775" lon="35.029117987210704">
        <ele>112</ele>
        <time>2026-06-10T15:16:47.042Z</time>
      </trkpt>
      <trkpt lat="32.54076594577952" lon="35.02923496132869">
        <ele>106</ele>
        <time>2026-06-10T15:16:48.042Z</time>
      </trkpt>
      <trkpt lat="32.54095481800187" lon="35.02930294787816">
        <ele>106</ele>
        <time>2026-06-10T15:16:49.042Z</time>
      </trkpt>
      <trkpt lat="32.54126885998105" lon="35.029464998009765">
        <ele>99</ele>
        <time>2026-06-10T15:16:50.042Z</time>
      </trkpt>
      <trkpt lat="32.5414089308994" lon="35.029499643210315">
        <ele>99</ele>
        <time>2026-06-10T15:16:51.042Z</time>
      </trkpt>
      <trkpt lat="32.54157694149562" lon="35.029576942985734">
        <ele>99</ele>
        <time>2026-06-10T15:16:52.042Z</time>
      </trkpt>
      <trkpt lat="32.54200795759279" lon="35.029841997396396">
        <ele>99</ele>
        <time>2026-06-10T15:16:53.042Z</time>
      </trkpt>
      <trkpt lat="32.542353758440484" lon="35.029989242508734">
        <ele>99</ele>
        <time>2026-06-10T15:16:54.042Z</time>
      </trkpt>
      <trkpt lat="32.542353758440484" lon="35.029989242508734">
        <ele>99</ele>
        <time>2026-06-10T15:16:55.042Z</time>
      </trkpt>
      <trkpt lat="32.54247995188415" lon="35.03004297681249">
        <ele>99</ele>
        <time>2026-06-10T15:16:56.042Z</time>
      </trkpt>
      <trkpt lat="32.54295995554983" lon="35.0302158302862">
        <ele>98</ele>
        <time>2026-06-10T15:16:57.042Z</time>
      </trkpt>
      <trkpt lat="32.54326487056758" lon="35.03024283864147">
        <ele>98</ele>
        <time>2026-06-10T15:16:58.042Z</time>
      </trkpt>
      <trkpt lat="32.54382291906676" lon="35.030480884696864">
        <ele>99</ele>
        <time>2026-06-10T15:16:59.042Z</time>
      </trkpt>
      <trkpt lat="32.54403712326371" lon="35.03051627495549">
        <ele>99</ele>
        <time>2026-06-10T15:17:00.042Z</time>
      </trkpt>
      <trkpt lat="32.54407083714167" lon="35.03066696295143">
        <ele>99</ele>
        <time>2026-06-10T15:17:01.042Z</time>
      </trkpt>
      <trkpt lat="32.54431093210677" lon="35.030669011861136">
        <ele>99</ele>
        <time>2026-06-10T15:17:02.042Z</time>
      </trkpt>
      <trkpt lat="32.544411887476116" lon="35.03066994318373">
        <ele>99</ele>
        <time>2026-06-10T15:17:03.042Z</time>
      </trkpt>
      <trkpt lat="32.54451787198747" lon="35.030648895293076">
        <ele>99</ele>
        <time>2026-06-10T15:17:04.042Z</time>
      </trkpt>
      <trkpt lat="32.5446439730669" lon="35.030648895293076">
        <ele>103</ele>
        <time>2026-06-10T15:17:05.042Z</time>
      </trkpt>
      <trkpt lat="32.544965838155875" lon="35.030690991074394">
        <ele>103</ele>
        <time>2026-06-10T15:17:06.042Z</time>
      </trkpt>
      <trkpt lat="32.545145955945834" lon="35.0306939713067">
        <ele>103</ele>
        <time>2026-06-10T15:17:07.042Z</time>
      </trkpt>
      <trkpt lat="32.54541287300169" lon="35.03073588082349">
        <ele>112</ele>
        <time>2026-06-10T15:17:08.042Z</time>
      </trkpt>
      <trkpt lat="32.545496878299794" lon="35.0307749963725">
        <ele>112</ele>
        <time>2026-06-10T15:17:09.042Z</time>
      </trkpt>
      <trkpt lat="32.54579397020773" lon="35.0308569527609">
        <ele>109</ele>
        <time>2026-06-10T15:17:10.042Z</time>
      </trkpt>
      <trkpt lat="32.54597278414606" lon="35.03088284352905">
        <ele>109</ele>
        <time>2026-06-10T15:17:11.042Z</time>
      </trkpt>
      <trkpt lat="32.54627881675092" lon="35.03088470617424">
        <ele>117</ele>
        <time>2026-06-10T15:17:12.042Z</time>
      </trkpt>
      <trkpt lat="32.5464708554701" lon="35.03083087572823">
        <ele>117</ele>
        <time>2026-06-10T15:17:13.042Z</time>
      </trkpt>
      <trkpt lat="32.5467549088617" lon="35.03069583395189">
        <ele>126</ele>
        <time>2026-06-10T15:17:14.042Z</time>
      </trkpt>
      <trkpt lat="32.54698587686537" lon="35.030663982719126">
        <ele>126</ele>
        <time>2026-06-10T15:17:15.042Z</time>
      </trkpt>
      <trkpt lat="32.547070999750595" lon="35.03062784740242">
        <ele>138</ele>
        <time>2026-06-10T15:17:16.042Z</time>
      </trkpt>
      <trkpt lat="32.54725987197295" lon="35.030503981497226">
        <ele>138</ele>
        <time>2026-06-10T15:17:17.042Z</time>
      </trkpt>
      <trkpt lat="32.547346857503356" lon="35.03047995337427">
        <ele>138</ele>
        <time>2026-06-10T15:17:18.042Z</time>
      </trkpt>
      <trkpt lat="32.54747165473115" lon="35.030499883677805">
        <ele>138</ele>
        <time>2026-06-10T15:17:19.042Z</time>
      </trkpt>
      <trkpt lat="32.5476478609662" lon="35.030465983535336">
        <ele>138</ele>
        <time>2026-06-10T15:17:20.042Z</time>
      </trkpt>
      <trkpt lat="32.547881995466696" lon="35.03047697314196">
        <ele>144</ele>
        <time>2026-06-10T15:17:21.042Z</time>
      </trkpt>
      <trkpt lat="32.54814295205794" lon="35.03055390038834">
        <ele>144</ele>
        <time>2026-06-10T15:17:22.042Z</time>
      </trkpt>
      <trkpt lat="32.5485378328384" lon="35.030540861872005">
        <ele>144</ele>
        <time>2026-06-10T15:17:23.042Z</time>
      </trkpt>
      <trkpt lat="32.54866461604873" lon="35.03049567362821">
        <ele>137.5</ele>
        <time>2026-06-10T15:17:24.042Z</time>
      </trkpt>
      <trkpt lat="32.54866461604873" lon="35.03049567362821">
        <ele>137.5</ele>
        <time>2026-06-10T15:17:25.042Z</time>
      </trkpt>
      <trkpt lat="32.54879599546185" lon="35.03044884719958">
        <ele>131</ele>
        <time>2026-06-10T15:17:26.042Z</time>
      </trkpt>
      <trkpt lat="32.54902491455581" lon="35.0304978347681">
        <ele>131</ele>
        <time>2026-06-10T15:17:27.042Z</time>
      </trkpt>
      <trkpt lat="32.54911488031853" lon="35.03049597212291">
        <ele>131</ele>
        <time>2026-06-10T15:17:28.042Z</time>
      </trkpt>
      <trkpt lat="32.54919590538433" lon="35.03044884719958">
        <ele>131</ele>
        <time>2026-06-10T15:17:29.042Z</time>
      </trkpt>
      <trkpt lat="32.549219933507295" lon="35.03041792728941">
        <ele>131</ele>
        <time>2026-06-10T15:17:30.042Z</time>
      </trkpt>
      <trkpt lat="32.54945499933038" lon="35.030013919547514">
        <ele>131</ele>
        <time>2026-06-10T15:17:31.042Z</time>
      </trkpt>
      <trkpt lat="32.549529877667055" lon="35.02982094950574">
        <ele>136</ele>
        <time>2026-06-10T15:17:32.042Z</time>
      </trkpt>
      <trkpt lat="32.549631950623514" lon="35.02970192647804">
        <ele>116</ele>
        <time>2026-06-10T15:17:33.042Z</time>
      </trkpt>
      <trkpt lat="32.549716887244216" lon="35.029664859838746">
        <ele>116</ele>
        <time>2026-06-10T15:17:34.042Z</time>
      </trkpt>
      <trkpt lat="32.54980592168434" lon="35.02964995867722">
        <ele>116</ele>
        <time>2026-06-10T15:17:35.042Z</time>
      </trkpt>
      <trkpt lat="32.55006911344981" lon="35.02970006383285">
        <ele>116</ele>
        <time>2026-06-10T15:17:36.042Z</time>
      </trkpt>
      <trkpt lat="32.55014585443167" lon="35.029860996377344">
        <ele>116</ele>
        <time>2026-06-10T15:17:37.042Z</time>
      </trkpt>
      <trkpt lat="32.55024997629784" lon="35.0301338738978">
        <ele>115</ele>
        <time>2026-06-10T15:17:38.042Z</time>
      </trkpt>
      <trkpt lat="32.55038892962908" lon="35.03043487736065">
        <ele>107</ele>
        <time>2026-06-10T15:17:39.042Z</time>
      </trkpt>
      <trkpt lat="32.55050385483735" lon="35.030533970084804">
        <ele>107</ele>
        <time>2026-06-10T15:17:40.042Z</time>
      </trkpt>
      <trkpt lat="32.550644857078304" lon="35.03052596071048">
        <ele>107</ele>
        <time>2026-06-10T15:17:41.042Z</time>
      </trkpt>
      <trkpt lat="32.55082087704884" lon="35.03047995337427">
        <ele>107</ele>
        <time>2026-06-10T15:17:42.042Z</time>
      </trkpt>
      <trkpt lat="32.551107910672755" lon="35.030439906502664">
        <ele>107</ele>
        <time>2026-06-10T15:17:43.042Z</time>
      </trkpt>
      <trkpt lat="32.55125189314601" lon="35.03044195541237">
        <ele>101</ele>
        <time>2026-06-10T15:17:44.042Z</time>
      </trkpt>
      <trkpt lat="32.551896927175605" lon="35.03052782335567">
        <ele>101</ele>
        <time>2026-06-10T15:17:45.042Z</time>
      </trkpt>
      <trkpt lat="32.552199979548156" lon="35.03066696295143">
        <ele>96</ele>
        <time>2026-06-10T15:17:46.042Z</time>
      </trkpt>
      <trkpt lat="32.552375999518695" lon="35.03071185270053">
        <ele>96</ele>
        <time>2026-06-10T15:17:47.042Z</time>
      </trkpt>
      <trkpt lat="32.5525449414375" lon="35.03078896621143">
        <ele>96</ele>
        <time>2026-06-10T15:17:48.042Z</time>
      </trkpt>
      <trkpt lat="32.55292696996615" lon="35.031109899977814">
        <ele>97</ele>
        <time>2026-06-10T15:17:49.042Z</time>
      </trkpt>
      <trkpt lat="32.553242874590524" lon="35.03113579074597">
        <ele>97</ele>
        <time>2026-06-10T15:17:50.042Z</time>
      </trkpt>
      <trkpt lat="32.55335332945034" lon="35.03088899025818">
        <ele>97</ele>
        <time>2026-06-10T15:17:51.042Z</time>
      </trkpt>
      <trkpt lat="32.55348986134283" lon="35.03062989631213">
        <ele>97</ele>
        <time>2026-06-10T15:17:52.042Z</time>
      </trkpt>
      <trkpt lat="32.55354089782106" lon="35.030492991890604">
        <ele>97</ele>
        <time>2026-06-10T15:17:53.042Z</time>
      </trkpt>
      <trkpt lat="32.55356399462143" lon="35.03038588979213">
        <ele>97</ele>
        <time>2026-06-10T15:17:54.042Z</time>
      </trkpt>
      <trkpt lat="32.55356585726662" lon="35.03012884475579">
        <ele>97</ele>
        <time>2026-06-10T15:17:55.042Z</time>
      </trkpt>
      <trkpt lat="32.553545926963075" lon="35.02985596723533">
        <ele>96</ele>
        <time>2026-06-10T15:17:56.042Z</time>
      </trkpt>
      <trkpt lat="32.55354853466634" lon="35.029473007384084">
        <ele>96</ele>
        <time>2026-06-10T15:17:57.042Z</time>
      </trkpt>
      <trkpt lat="32.553948390980324" lon="35.02759565592854">
        <ele>94.5</ele>
        <time>2026-06-10T15:17:58.042Z</time>
      </trkpt>
      <trkpt lat="32.553948390980324" lon="35.02759565592854">
        <ele>94.5</ele>
        <time>2026-06-10T15:17:59.042Z</time>
      </trkpt>
      <trkpt lat="32.55394863085334" lon="35.0275945297091">
        <ele>93</ele>
        <time>2026-06-10T15:18:00.042Z</time>
      </trkpt>
      <trkpt lat="32.55411198483658" lon="35.027060881861914">
        <ele>89</ele>
        <time>2026-06-10T15:18:01.042Z</time>
      </trkpt>
      <trkpt lat="32.5545152475204" lon="35.026139431286">
        <ele>86</ele>
        <time>2026-06-10T15:18:02.042Z</time>
      </trkpt>
      <trkpt lat="32.5547318731561" lon="35.025752001086296">
        <ele>83</ele>
        <time>2026-06-10T15:18:03.042Z</time>
      </trkpt>
      <trkpt lat="32.55503306288346" lon="35.02532862183441">
        <ele>83</ele>
        <time>2026-06-10T15:18:04.042Z</time>
      </trkpt>
      <trkpt lat="32.55517965305998" lon="35.025156885947816">
        <ele>83</ele>
        <time>2026-06-10T15:18:05.042Z</time>
      </trkpt>
      <trkpt lat="32.555232552183405" lon="35.0251078983793">
        <ele>83</ele>
        <time>2026-06-10T15:18:06.042Z</time>
      </trkpt>
      <trkpt lat="32.555387151734244" lon="35.02496428843508">
        <ele>80</ele>
        <time>2026-06-10T15:18:07.042Z</time>
      </trkpt>
      <trkpt lat="32.55635013929792" lon="35.02408530616951">
        <ele>77</ele>
        <time>2026-06-10T15:18:08.042Z</time>
      </trkpt>
      <trkpt lat="32.55683573089918" lon="35.0234508892175">
        <ele>77</ele>
        <time>2026-06-10T15:18:09.042Z</time>
      </trkpt>
      <trkpt lat="32.55696592979802" lon="35.023306906744246">
        <ele>75</ele>
        <time>2026-06-10T15:18:10.042Z</time>
      </trkpt>
      <trkpt lat="32.557294872938726" lon="35.023045950153005">
        <ele>73</ele>
        <time>2026-06-10T15:18:11.042Z</time>
      </trkpt>
      <trkpt lat="32.557541859691035" lon="35.02291984907359">
        <ele>73</ele>
        <time>2026-06-10T15:18:12.042Z</time>
      </trkpt>
      <trkpt lat="32.557646912879804" lon="35.02289582095062">
        <ele>73</ele>
        <time>2026-06-10T15:18:13.042Z</time>
      </trkpt>
      <trkpt lat="32.55791382993565" lon="35.02285484275642">
        <ele>72</ele>
        <time>2026-06-10T15:18:14.042Z</time>
      </trkpt>
      <trkpt lat="32.55827071275422" lon="35.02282988331087">
        <ele>72</ele>
        <time>2026-06-10T15:18:15.042Z</time>
      </trkpt>
      <trkpt lat="32.55848491695117" lon="35.02285186252412">
        <ele>72</ele>
        <time>2026-06-10T15:18:16.042Z</time>
      </trkpt>
      <trkpt lat="32.55894126502293" lon="35.023044832565894">
        <ele>70</ele>
        <time>2026-06-10T15:18:17.042Z</time>
      </trkpt>
      <trkpt lat="32.559052278676305" lon="35.0230712821276">
        <ele>70</ele>
        <time>2026-06-10T15:18:18.042Z</time>
      </trkpt>
      <trkpt lat="32.559097913483484" lon="35.02306699804367">
        <ele>70</ele>
        <time>2026-06-10T15:18:19.042Z</time>
      </trkpt>
      <trkpt lat="32.5592415234277" lon="35.02300515822333">
        <ele>70</ele>
        <time>2026-06-10T15:18:20.042Z</time>
      </trkpt>
      <trkpt lat="32.55942275880477" lon="35.02288371375688">
        <ele>70</ele>
        <time>2026-06-10T15:18:21.042Z</time>
      </trkpt>
      <trkpt lat="32.559540664245354" lon="35.022830069575384">
        <ele>69</ele>
        <time>2026-06-10T15:18:22.042Z</time>
      </trkpt>
      <trkpt lat="32.55965577571815" lon="35.02282913825279">
        <ele>69</ele>
        <time>2026-06-10T15:18:23.042Z</time>
      </trkpt>
      <trkpt lat="32.56070798398647" lon="35.02314783684495">
        <ele>69</ele>
        <time>2026-06-10T15:18:24.042Z</time>
      </trkpt>
      <trkpt lat="32.56093988331273" lon="35.023117661992856">
        <ele>69</ele>
        <time>2026-06-10T15:18:25.042Z</time>
      </trkpt>
      <trkpt lat="32.5617408207448" lon="35.02288986048601">
        <ele>71</ele>
        <time>2026-06-10T15:18:26.042Z</time>
      </trkpt>
      <trkpt lat="32.5619399375157" lon="35.02286993018247">
        <ele>71</ele>
        <time>2026-06-10T15:18:27.042Z</time>
      </trkpt>
      <trkpt lat="32.56184922669491" lon="35.02386886679833">
        <ele>72</ele>
        <time>2026-06-10T15:18:28.042Z</time>
      </trkpt>
      <trkpt lat="32.5617456636223" lon="35.02509951647593">
        <ele>72</ele>
        <time>2026-06-10T15:18:29.042Z</time>
      </trkpt>
      <trkpt lat="32.5617417520674" lon="35.025236607161986">
        <ele>72</ele>
        <time>2026-06-10T15:18:30.042Z</time>
      </trkpt>
      <trkpt lat="32.56168177489225" lon="35.02619363426105">
        <ele>74</ele>
        <time>2026-06-10T15:18:31.042Z</time>
      </trkpt>
      <trkpt lat="32.56179502371985" lon="35.02697650403477">
        <ele>74</ele>
        <time>2026-06-10T15:18:32.042Z</time>
      </trkpt>
      <trkpt lat="32.561721821763854" lon="35.02735611112467">
        <ele>74</ele>
        <time>2026-06-10T15:18:33.042Z</time>
      </trkpt>
      <trkpt lat="32.561775093416315" lon="35.02780687126086">
        <ele>74</ele>
        <time>2026-06-10T15:18:34.042Z</time>
      </trkpt>
      <trkpt lat="32.56182799253973" lon="35.02796743127631">
        <ele>74</ele>
        <time>2026-06-10T15:18:35.042Z</time>
      </trkpt>
      <trkpt lat="32.5618589124499" lon="35.02822969171918">
        <ele>74</ele>
        <time>2026-06-10T15:18:36.042Z</time>
      </trkpt>
      <trkpt lat="32.56186319653384" lon="35.02826526824233">
        <ele>74</ele>
        <time>2026-06-10T15:18:37.042Z</time>
      </trkpt>
      <trkpt lat="32.56173765424798" lon="35.028266944623">
        <ele>74</ele>
        <time>2026-06-10T15:18:38.042Z</time>
      </trkpt>
      <trkpt lat="32.56155995789677" lon="35.028210879002756">
        <ele>74</ele>
        <time>2026-06-10T15:18:39.042Z</time>
      </trkpt>
      <trkpt lat="32.56132284316397" lon="35.02816282275683">
        <ele>74</ele>
        <time>2026-06-10T15:18:40.042Z</time>
      </trkpt>
      <trkpt lat="32.56091175737035" lon="35.02797897967649">
        <ele>72</ele>
        <time>2026-06-10T15:18:41.042Z</time>
      </trkpt>
      <trkpt lat="32.56074486436125" lon="35.027945824592095">
        <ele>72</ele>
        <time>2026-06-10T15:18:42.042Z</time>
      </trkpt>
      <trkpt lat="32.56041182340112" lon="35.02793017837249">
        <ele>72</ele>
        <time>2026-06-10T15:18:43.042Z</time>
      </trkpt>
      <trkpt lat="32.560496573757305" lon="35.02852175448511">
        <ele>73</ele>
        <time>2026-06-10T15:18:44.042Z</time>
      </trkpt>
      <trkpt lat="32.56062565506903" lon="35.028995797686186">
        <ele>73</ele>
        <time>2026-06-10T15:18:45.042Z</time>
      </trkpt>
      <trkpt lat="32.561119814838165" lon="35.03016293116278">
        <ele>76</ele>
        <time>2026-06-10T15:18:46.042Z</time>
      </trkpt>
      <trkpt lat="32.561254856614504" lon="35.030577928511306">
        <ele>75</ele>
        <time>2026-06-10T15:18:47.042Z</time>
      </trkpt>
      <trkpt lat="32.56160093609097" lon="35.03113988856539">
        <ele>77</ele>
        <time>2026-06-10T15:18:48.042Z</time>
      </trkpt>
      <trkpt lat="32.56187586252114" lon="35.03152582864894">
        <ele>77</ele>
        <time>2026-06-10T15:18:49.042Z</time>
      </trkpt>
      <trkpt lat="32.56264997786246" lon="35.03311093970636">
        <ele>78</ele>
        <time>2026-06-10T15:18:50.042Z</time>
      </trkpt>
      <trkpt lat="32.56277794158707" lon="35.033464842292624">
        <ele>78</ele>
        <time>2026-06-10T15:18:51.042Z</time>
      </trkpt>
      <trkpt lat="32.563032751449185" lon="35.03389287815749">
        <ele>79</ele>
        <time>2026-06-10T15:18:52.042Z</time>
      </trkpt>
      <trkpt lat="32.563262974394775" lon="35.034200959672056">
        <ele>79</ele>
        <time>2026-06-10T15:18:53.042Z</time>
      </trkpt>
      <trkpt lat="32.56355987159598" lon="35.03471892092875">
        <ele>79</ele>
        <time>2026-06-10T15:18:54.042Z</time>
      </trkpt>
      <trkpt lat="32.56355987159598" lon="35.03471892092875">
        <ele>79</ele>
        <time>2026-06-10T15:18:55.042Z</time>
      </trkpt>
      <trkpt lat="32.563580927928854" lon="35.034755655409896">
        <ele>79</ele>
        <time>2026-06-10T15:18:56.042Z</time>
      </trkpt>
      <trkpt lat="32.563729939544125" lon="35.0349499293033">
        <ele>80</ele>
        <time>2026-06-10T15:18:57.042Z</time>
      </trkpt>
      <trkpt lat="32.564068754704344" lon="35.03548842002798">
        <ele>79</ele>
        <time>2026-06-10T15:18:58.042Z</time>
      </trkpt>
      <trkpt lat="32.56419727722251" lon="35.0359853737649">
        <ele>81</ele>
        <time>2026-06-10T15:18:59.042Z</time>
      </trkpt>
      <trkpt lat="32.5645016334467" lon="35.03723614001057">
        <ele>81</ele>
        <time>2026-06-10T15:19:00.042Z</time>
      </trkpt>
      <trkpt lat="32.56501553725486" lon="35.038282760343314">
        <ele>86</ele>
        <time>2026-06-10T15:19:01.042Z</time>
      </trkpt>
      <trkpt lat="32.565294747768974" lon="35.03859009679981">
        <ele>85</ele>
        <time>2026-06-10T15:19:02.042Z</time>
      </trkpt>
      <trkpt lat="32.56603924705176" lon="35.03929101018513">
        <ele>85</ele>
        <time>2026-06-10T15:19:03.042Z</time>
      </trkpt>
      <trkpt lat="32.56621731593201" lon="35.039650873236006">
        <ele>95</ele>
        <time>2026-06-10T15:19:04.042Z</time>
      </trkpt>
      <trkpt lat="32.56633876039845" lon="35.03998242407998">
        <ele>87</ele>
        <time>2026-06-10T15:19:05.042Z</time>
      </trkpt>
      <trkpt lat="32.566474175295866" lon="35.04051752954417">
        <ele>86.5</ele>
        <time>2026-06-10T15:19:06.042Z</time>
      </trkpt>
      <trkpt lat="32.566817902" lon="35.040395061">
        <ele>-1</ele>
        <time>2026-06-10T15:19:07.042Z</time>
      </trkpt>
      <trkpt lat="32.571994876" lon="35.041130659">
        <ele>-1</ele>
        <time>2026-06-10T15:19:08.042Z</time>
      </trkpt>
      <trkpt lat="32.577162636" lon="35.041727907">
        <ele>-1</ele>
        <time>2026-06-10T15:19:09.042Z</time>
      </trkpt>
      <trkpt lat="32.577992937" lon="35.042248194">
        <ele>-1</ele>
        <time>2026-06-10T15:19:10.042Z</time>
      </trkpt>
      <trkpt lat="32.579661604" lon="35.042585859">
        <ele>-1</ele>
        <time>2026-06-10T15:19:11.042Z</time>
      </trkpt>
      <trkpt lat="32.582772828" lon="35.042761068">
        <ele>-1</ele>
        <time>2026-06-10T15:19:12.042Z</time>
      </trkpt>
      <trkpt lat="32.584037098" lon="35.044132652">
        <ele>-1</ele>
        <time>2026-06-10T15:19:13.042Z</time>
      </trkpt>
      <trkpt lat="32.586387267" lon="35.048420676">
        <ele>-1</ele>
        <time>2026-06-10T15:19:14.042Z</time>
      </trkpt>
      <trkpt lat="32.58671279" lon="35.049112411">
        <ele>-1</ele>
        <time>2026-06-10T15:19:15.042Z</time>
      </trkpt>
      <trkpt lat="32.587290506" lon="35.04958002">
        <ele>-1</ele>
        <time>2026-06-10T15:19:16.042Z</time>
      </trkpt>
      <trkpt lat="32.587291674" lon="35.050485373">
        <ele>-1</ele>
        <time>2026-06-10T15:19:17.042Z</time>
      </trkpt>
      <trkpt lat="32.588197877" lon="35.053998691">
        <ele>-1</ele>
        <time>2026-06-10T15:19:18.042Z</time>
      </trkpt>
      <trkpt lat="32.58797781614309" lon="35.05403248880759">
        <ele>131</ele>
        <time>2026-06-10T15:19:19.042Z</time>
      </trkpt>
      <trkpt lat="32.587998902529456" lon="35.05422588559">
        <ele>127</ele>
        <time>2026-06-10T15:19:20.042Z</time>
      </trkpt>
      <trkpt lat="32.587981952458215" lon="35.054350869082306">
        <ele>127</ele>
        <time>2026-06-10T15:19:21.042Z</time>
      </trkpt>
      <trkpt lat="32.587935945122005" lon="35.05451198789132">
        <ele>127</ele>
        <time>2026-06-10T15:19:22.042Z</time>
      </trkpt>
      <trkpt lat="32.58774986686743" lon="35.05487688008421">
        <ele>120</ele>
        <time>2026-06-10T15:19:23.042Z</time>
      </trkpt>
      <trkpt lat="32.58770795735064" lon="35.055166893940424">
        <ele>119</ele>
        <time>2026-06-10T15:19:24.042Z</time>
      </trkpt>
      <trkpt lat="32.58771391781525" lon="35.05552694325582">
        <ele>119</ele>
        <time>2026-06-10T15:19:25.042Z</time>
      </trkpt>
      <trkpt lat="32.5876949188343" lon="35.05590878551995">
        <ele>120</ele>
        <time>2026-06-10T15:19:26.042Z</time>
      </trkpt>
      <trkpt lat="32.587655989549816" lon="35.05605686581262">
        <ele>120</ele>
        <time>2026-06-10T15:19:27.042Z</time>
      </trkpt>
      <trkpt lat="32.58756788643229" lon="35.056198985640684">
        <ele>120</ele>
        <time>2026-06-10T15:19:28.042Z</time>
      </trkpt>
      <trkpt lat="32.58752094777348" lon="35.056332909829905">
        <ele>120</ele>
        <time>2026-06-10T15:19:29.042Z</time>
      </trkpt>
      <trkpt lat="32.58751889886377" lon="35.056414866218304">
        <ele>120</ele>
        <time>2026-06-10T15:19:30.042Z</time>
      </trkpt>
      <trkpt lat="32.587700879298914" lon="35.05696583666576">
        <ele>121</ele>
        <time>2026-06-10T15:19:31.042Z</time>
      </trkpt>
      <trkpt lat="32.58843587909123" lon="35.05856286865241">
        <ele>128</ele>
        <time>2026-06-10T15:19:32.042Z</time>
      </trkpt>
      <trkpt lat="32.58864598546876" lon="35.059113839099865">
        <ele>128</ele>
        <time>2026-06-10T15:19:33.042Z</time>
      </trkpt>
      <trkpt lat="32.58875588153502" lon="35.05933288617431">
        <ele>131</ele>
        <time>2026-06-10T15:19:34.042Z</time>
      </trkpt>
      <trkpt lat="32.58883988683313" lon="35.05944278224057">
        <ele>131</ele>
        <time>2026-06-10T15:19:35.042Z</time>
      </trkpt>
      <trkpt lat="32.58887807105954" lon="35.05947202577007">
        <ele>131</ele>
        <time>2026-06-10T15:19:36.042Z</time>
      </trkpt>
      <trkpt lat="32.588981820396675" lon="35.059550815661645">
        <ele>131</ele>
        <time>2026-06-10T15:19:37.042Z</time>
      </trkpt>
      <trkpt lat="32.58911891108272" lon="35.05959086253325">
        <ele>131</ele>
        <time>2026-06-10T15:19:38.042Z</time>
      </trkpt>
      <trkpt lat="32.58924389457503" lon="35.05958583339123">
        <ele>131</ele>
        <time>2026-06-10T15:19:39.042Z</time>
      </trkpt>
      <trkpt lat="32.58968087113681" lon="35.0594049705432">
        <ele>135</ele>
        <time>2026-06-10T15:19:40.042Z</time>
      </trkpt>
      <trkpt lat="32.59008394755611" lon="35.05930587781904">
        <ele>135</ele>
        <time>2026-06-10T15:19:41.042Z</time>
      </trkpt>
      <trkpt lat="32.59037992187694" lon="35.05918983502365">
        <ele>138</ele>
        <time>2026-06-10T15:19:42.042Z</time>
      </trkpt>
      <trkpt lat="32.59047696569138" lon="35.05918797237846">
        <ele>138</ele>
        <time>2026-06-10T15:19:43.042Z</time>
      </trkpt>
      <trkpt lat="32.59050261413785" lon="35.05919425363066">
        <ele>138</ele>
        <time>2026-06-10T15:19:44.042Z</time>
      </trkpt>
      <trkpt lat="32.59050261413785" lon="35.05919425363066">
        <ele>138</ele>
        <time>2026-06-10T15:19:45.042Z</time>
      </trkpt>
      <trkpt lat="32.59066863188152" lon="35.05923491103727">
        <ele>138</ele>
        <time>2026-06-10T15:19:46.042Z</time>
      </trkpt>
      <trkpt lat="32.590910775756335" lon="35.05934909118747">
        <ele>138</ele>
        <time>2026-06-10T15:19:47.042Z</time>
      </trkpt>
      <trkpt lat="32.59116167406354" lon="35.05964562430186">
        <ele>138</ele>
        <time>2026-06-10T15:19:48.042Z</time>
      </trkpt>
      <trkpt lat="32.591356879279545" lon="35.06023496524025">
        <ele>138</ele>
        <time>2026-06-10T15:19:49.042Z</time>
      </trkpt>
      <trkpt lat="32.591455040681105" lon="35.06040409342358">
        <ele>138</ele>
        <time>2026-06-10T15:19:50.042Z</time>
      </trkpt>
      <trkpt lat="32.59155525099237" lon="35.060504303734845">
        <ele>138</ele>
        <time>2026-06-10T15:19:51.042Z</time>
      </trkpt>
      <trkpt lat="32.59216396344075" lon="35.06080418961057">
        <ele>141</ele>
        <time>2026-06-10T15:19:52.042Z</time>
      </trkpt>
      <trkpt lat="32.59198291432819" lon="35.06095990674853">
        <ele>143</ele>
        <time>2026-06-10T15:19:53.042Z</time>
      </trkpt>
      <trkpt lat="32.59189686012038" lon="35.06107092040191">
        <ele>143</ele>
        <time>2026-06-10T15:19:54.042Z</time>
      </trkpt>
      <trkpt lat="32.59186985176511" lon="35.061158837254915">
        <ele>143</ele>
        <time>2026-06-10T15:19:55.042Z</time>
      </trkpt>
      <trkpt lat="32.59185085278416" lon="35.061450900020844">
        <ele>143</ele>
        <time>2026-06-10T15:19:56.042Z</time>
      </trkpt>
      <trkpt lat="32.591865940210205" lon="35.06150473046686">
        <ele>143</ele>
        <time>2026-06-10T15:19:57.042Z</time>
      </trkpt>
      <trkpt lat="32.591886801836345" lon="35.06157886374545">
        <ele>143</ele>
        <time>2026-06-10T15:19:58.042Z</time>
      </trkpt>
      <trkpt lat="32.59206095916169" lon="35.06188284744061">
        <ele>138</ele>
        <time>2026-06-10T15:19:59.042Z</time>
      </trkpt>
      <trkpt lat="32.59220699054465" lon="35.062070788340364">
        <ele>138</ele>
        <time>2026-06-10T15:20:00.042Z</time>
      </trkpt>
      <trkpt lat="32.592395862767006" lon="35.06226282705954">
        <ele>138</ele>
        <time>2026-06-10T15:20:01.042Z</time>
      </trkpt>
      <trkpt lat="32.592554560137266" lon="35.06240829964895">
        <ele>138</ele>
        <time>2026-06-10T15:20:02.042Z</time>
      </trkpt>
      <trkpt lat="32.59295484258879" lon="35.06277486822251">
        <ele>144</ele>
        <time>2026-06-10T15:20:03.042Z</time>
      </trkpt>
      <trkpt lat="32.59299373026157" lon="35.06282465276188">
        <ele>144</ele>
        <time>2026-06-10T15:20:04.042Z</time>
      </trkpt>
      <trkpt lat="32.59299373026157" lon="35.06282465276188">
        <ele>144</ele>
        <time>2026-06-10T15:20:05.042Z</time>
      </trkpt>
      <trkpt lat="32.593128999914136" lon="35.062997826851856">
        <ele>144</ele>
        <time>2026-06-10T15:20:06.042Z</time>
      </trkpt>
      <trkpt lat="32.593330910652824" lon="35.06322190306832">
        <ele>144</ele>
        <time>2026-06-10T15:20:07.042Z</time>
      </trkpt>
      <trkpt lat="32.59419592307946" lon="35.06413087392146">
        <ele>148</ele>
        <time>2026-06-10T15:20:08.042Z</time>
      </trkpt>
      <trkpt lat="32.59456696200148" lon="35.064573997212364">
        <ele>149</ele>
        <time>2026-06-10T15:20:09.042Z</time>
      </trkpt>
      <trkpt lat="32.5947388841526" lon="35.06484184559081">
        <ele>149</ele>
        <time>2026-06-10T15:20:10.042Z</time>
      </trkpt>
      <trkpt lat="32.59498084176289" lon="35.0653218492565">
        <ele>149</ele>
        <time>2026-06-10T15:20:11.042Z</time>
      </trkpt>
      <trkpt lat="32.59515276391401" lon="35.065577404176686">
        <ele>149</ele>
        <time>2026-06-10T15:20:12.042Z</time>
      </trkpt>
      <trkpt lat="32.59537087966586" lon="35.06588418183962">
        <ele>152</ele>
        <time>2026-06-10T15:20:13.042Z</time>
      </trkpt>
      <trkpt lat="32.596027648360156" lon="35.06671194136244">
        <ele>152</ele>
        <time>2026-06-10T15:20:14.042Z</time>
      </trkpt>
      <trkpt lat="32.596279850519" lon="35.06700791568327">
        <ele>153</ele>
        <time>2026-06-10T15:20:15.042Z</time>
      </trkpt>
      <trkpt lat="32.59677587293333" lon="35.06775893422422">
        <ele>151</ele>
        <time>2026-06-10T15:20:16.042Z</time>
      </trkpt>
      <trkpt lat="32.59712903046152" lon="35.06834808889809">
        <ele>152</ele>
        <time>2026-06-10T15:20:17.042Z</time>
      </trkpt>
      <trkpt lat="32.59732982361309" lon="35.068893843939016">
        <ele>152</ele>
        <time>2026-06-10T15:20:18.042Z</time>
      </trkpt>
      <trkpt lat="32.597371919394405" lon="35.06906390344494">
        <ele>152</ele>
        <time>2026-06-10T15:20:19.042Z</time>
      </trkpt>
      <trkpt lat="32.59737899744613" lon="35.06917882865322">
        <ele>154</ele>
        <time>2026-06-10T15:20:20.042Z</time>
      </trkpt>
      <trkpt lat="32.59735087150374" lon="35.06935466235924">
        <ele>154</ele>
        <time>2026-06-10T15:20:21.042Z</time>
      </trkpt>
      <trkpt lat="32.59706290655724" lon="35.07028989650957">
        <ele>158</ele>
        <time>2026-06-10T15:20:22.042Z</time>
      </trkpt>
      <trkpt lat="32.5968049301983" lon="35.070804917904844">
        <ele>167</ele>
        <time>2026-06-10T15:20:23.042Z</time>
      </trkpt>
      <trkpt lat="32.59677699052044" lon="35.070904941951596">
        <ele>167</ele>
        <time>2026-06-10T15:20:24.042Z</time>
      </trkpt>
      <trkpt lat="32.59674290411345" lon="35.07116384963312">
        <ele>167</ele>
        <time>2026-06-10T15:20:25.042Z</time>
      </trkpt>
      <trkpt lat="32.59678499989476" lon="35.07152799676794">
        <ele>167</ele>
        <time>2026-06-10T15:20:26.042Z</time>
      </trkpt>
      <trkpt lat="32.59683585010847" lon="35.07169488977704">
        <ele>171</ele>
        <time>2026-06-10T15:20:27.042Z</time>
      </trkpt>
      <trkpt lat="32.596884092618915" lon="35.07176734667497">
        <ele>171</ele>
        <time>2026-06-10T15:20:28.042Z</time>
      </trkpt>
      <trkpt lat="32.597005909614396" lon="35.071950817226266">
        <ele>165</ele>
        <time>2026-06-10T15:20:29.042Z</time>
      </trkpt>
      <trkpt lat="32.59717485153321" lon="35.072311984128774">
        <ele>165</ele>
        <time>2026-06-10T15:20:30.042Z</time>
      </trkpt>
      <trkpt lat="32.59719273292704" lon="35.072453917692314">
        <ele>166</ele>
        <time>2026-06-10T15:20:31.042Z</time>
      </trkpt>
      <trkpt lat="32.597109845216046" lon="35.072894992073515">
        <ele>166</ele>
        <time>2026-06-10T15:20:32.042Z</time>
      </trkpt>
      <trkpt lat="32.59709494405452" lon="35.07328298106677">
        <ele>169</ele>
        <time>2026-06-10T15:20:33.042Z</time>
      </trkpt>
      <trkpt lat="32.597116737003255" lon="35.07356479928415">
        <ele>169</ele>
        <time>2026-06-10T15:20:34.042Z</time>
      </trkpt>
      <trkpt lat="32.59717894935263" lon="35.073791855732914">
        <ele>169</ele>
        <time>2026-06-10T15:20:35.042Z</time>
      </trkpt>
      <trkpt lat="32.597275993167074" lon="35.07404163645301">
        <ele>169</ele>
        <time>2026-06-10T15:20:36.042Z</time>
      </trkpt>
      <trkpt lat="32.597356831968355" lon="35.07436089383872">
        <ele>170</ele>
        <time>2026-06-10T15:20:37.042Z</time>
      </trkpt>
      <trkpt lat="32.59756097788127" lon="35.07470790463778">
        <ele>170</ele>
        <time>2026-06-10T15:20:38.042Z</time>
      </trkpt>
      <trkpt lat="32.59768596137358" lon="35.07482785898807">
        <ele>170</ele>
        <time>2026-06-10T15:20:39.042Z</time>
      </trkpt>
      <trkpt lat="32.59790482218351" lon="35.07498990911968">
        <ele>173</ele>
        <time>2026-06-10T15:20:40.042Z</time>
      </trkpt>
      <trkpt lat="32.598167827684456" lon="35.07507186550808">
        <ele>173</ele>
        <time>2026-06-10T15:20:41.042Z</time>
      </trkpt>
      <trkpt lat="32.59826692040861" lon="35.0751208530766">
        <ele>173</ele>
        <time>2026-06-10T15:20:42.042Z</time>
      </trkpt>
      <trkpt lat="32.59845691021808" lon="35.07516984064512">
        <ele>173</ele>
        <time>2026-06-10T15:20:43.042Z</time>
      </trkpt>
      <trkpt lat="32.59862287190459" lon="35.07524099369141">
        <ele>173</ele>
        <time>2026-06-10T15:20:44.042Z</time>
      </trkpt>
      <trkpt lat="32.59896299091644" lon="35.07530097086655">
        <ele>177</ele>
        <time>2026-06-10T15:20:45.042Z</time>
      </trkpt>
      <trkpt lat="32.59939996747821" lon="35.075465814965945">
        <ele>177</ele>
        <time>2026-06-10T15:20:46.042Z</time>
      </trkpt>
      <trkpt lat="32.59989096075053" lon="35.075848961081704">
        <ele>178</ele>
        <time>2026-06-10T15:20:47.042Z</time>
      </trkpt>
      <trkpt lat="32.60012695789621" lon="35.07601399144561">
        <ele>178</ele>
        <time>2026-06-10T15:20:48.042Z</time>
      </trkpt>
      <trkpt lat="32.600463910411236" lon="35.07635969839304">
        <ele>182</ele>
        <time>2026-06-10T15:20:49.042Z</time>
      </trkpt>
      <trkpt lat="32.60057194383231" lon="35.076515788060036">
        <ele>182</ele>
        <time>2026-06-10T15:20:50.042Z</time>
      </trkpt>
      <trkpt lat="32.600665821149924" lon="35.076741913186204">
        <ele>181</ele>
        <time>2026-06-10T15:20:51.042Z</time>
      </trkpt>
      <trkpt lat="32.60071294607326" lon="35.07694270633778">
        <ele>181</ele>
        <time>2026-06-10T15:20:52.042Z</time>
      </trkpt>
      <trkpt lat="32.60084798784959" lon="35.07721390747757">
        <ele>181</ele>
        <time>2026-06-10T15:20:53.042Z</time>
      </trkpt>
      <trkpt lat="32.60088784845668" lon="35.07733982229247">
        <ele>181</ele>
        <time>2026-06-10T15:20:54.042Z</time>
      </trkpt>
      <trkpt lat="32.60090591611503" lon="35.0774649920493">
        <ele>185</ele>
        <time>2026-06-10T15:20:55.042Z</time>
      </trkpt>
      <trkpt lat="32.60090181829561" lon="35.07761195475486">
        <ele>185</ele>
        <time>2026-06-10T15:20:56.042Z</time>
      </trkpt>
      <trkpt lat="32.60087983908236" lon="35.07768999958836">
        <ele>185</ele>
        <time>2026-06-10T15:20:57.042Z</time>
      </trkpt>
      <trkpt lat="32.60082097949432" lon="35.07776394660243">
        <ele>185</ele>
        <time>2026-06-10T15:20:58.042Z</time>
      </trkpt>
      <trkpt lat="32.600732876376796" lon="35.07781181658384">
        <ele>185</ele>
        <time>2026-06-10T15:20:59.042Z</time>
      </trkpt>
      <trkpt lat="32.60066787005964" lon="35.0778719800235">
        <ele>185</ele>
        <time>2026-06-10T15:21:00.042Z</time>
      </trkpt>
      <trkpt lat="32.600417716810504" lon="35.07830485876586">
        <ele>186</ele>
        <time>2026-06-10T15:21:01.042Z</time>
      </trkpt>
      <trkpt lat="32.60029399291668" lon="35.07868494876004">
        <ele>191</ele>
        <time>2026-06-10T15:21:02.042Z</time>
      </trkpt>
      <trkpt lat="32.60029399291668" lon="35.07868494876004">
        <ele>191</ele>
        <time>2026-06-10T15:21:03.042Z</time>
      </trkpt>
      <trkpt lat="32.600254921620824" lon="35.07880497899961">
        <ele>196</ele>
        <time>2026-06-10T15:21:04.042Z</time>
      </trkpt>
      <trkpt lat="32.60019289553597" lon="35.079067984500554">
        <ele>196</ele>
        <time>2026-06-10T15:21:05.042Z</time>
      </trkpt>
      <trkpt lat="32.60014595687716" lon="35.07920284001238">
        <ele>195</ele>
        <time>2026-06-10T15:21:06.042Z</time>
      </trkpt>
      <trkpt lat="32.6001453980836" lon="35.07924940614215">
        <ele>195</ele>
        <time>2026-06-10T15:21:07.042Z</time>
      </trkpt>
      <trkpt lat="32.60021897256864" lon="35.07935483185995">
        <ele>195</ele>
        <time>2026-06-10T15:21:08.042Z</time>
      </trkpt>
      <trkpt lat="32.60051382930235" lon="35.079435856925755">
        <ele>191</ele>
        <time>2026-06-10T15:21:09.042Z</time>
      </trkpt>
      <trkpt lat="32.60055778772885" lon="35.07942393599653">
        <ele>191</ele>
        <time>2026-06-10T15:21:10.042Z</time>
      </trkpt>
      <trkpt lat="32.600562071812796" lon="35.07943362175153">
        <ele>191</ele>
        <time>2026-06-10T15:21:11.042Z</time>
      </trkpt>
      <trkpt lat="32.60058144332278" lon="35.07951669572704">
        <ele>191</ele>
        <time>2026-06-10T15:21:12.042Z</time>
      </trkpt>
      <trkpt lat="32.60063024462678" lon="35.07958188830872">
        <ele>191</ele>
        <time>2026-06-10T15:21:13.042Z</time>
      </trkpt>
      <trkpt lat="32.60078614802926" lon="35.07956754594075">
        <ele>191</ele>
        <time>2026-06-10T15:21:14.042Z</time>
      </trkpt>
      <trkpt lat="32.6012043118746" lon="35.07967464803922">
        <ele>191</ele>
        <time>2026-06-10T15:21:15.042Z</time>
      </trkpt>
      <trkpt lat="32.60153772536377" lon="35.07981583654469">
        <ele>191</ele>
        <time>2026-06-10T15:21:16.042Z</time>
      </trkpt>
      <trkpt lat="32.60188287351764" lon="35.07999874830243">
        <ele>196</ele>
        <time>2026-06-10T15:21:17.042Z</time>
      </trkpt>
      <trkpt lat="32.60210732226314" lon="35.08002761930289">
        <ele>194</ele>
        <time>2026-06-10T15:21:18.042Z</time>
      </trkpt>
      <trkpt lat="32.60232394789883" lon="35.08011292845263">
        <ele>194</ele>
        <time>2026-06-10T15:21:19.042Z</time>
      </trkpt>
      <trkpt lat="32.602362877183324" lon="35.080191904608725">
        <ele>194</ele>
        <time>2026-06-10T15:21:20.042Z</time>
      </trkpt>
      <trkpt lat="32.602480596359385" lon="35.0803878548828">
        <ele>194</ele>
        <time>2026-06-10T15:21:21.042Z</time>
      </trkpt>
      <trkpt lat="32.6025422499152" lon="35.08062925369954">
        <ele>194</ele>
        <time>2026-06-10T15:21:22.042Z</time>
      </trkpt>
      <trkpt lat="32.60259105121921" lon="35.08083880128351">
        <ele>198</ele>
        <time>2026-06-10T15:21:23.042Z</time>
      </trkpt>
      <trkpt lat="32.6026378036135" lon="35.08113086404944">
        <ele>198</ele>
        <time>2026-06-10T15:21:24.042Z</time>
      </trkpt>
      <trkpt lat="32.60269461429181" lon="35.08142981860257">
        <ele>198</ele>
        <time>2026-06-10T15:21:25.042Z</time>
      </trkpt>
      <trkpt lat="32.60294774777326" lon="35.08179284815027">
        <ele>200</ele>
        <time>2026-06-10T15:21:26.042Z</time>
      </trkpt>
      <trkpt lat="32.603028959103575" lon="35.08187890235809">
        <ele>200</ele>
        <time>2026-06-10T15:21:27.042Z</time>
      </trkpt>
      <trkpt lat="32.60311296440168" lon="35.082022884831346">
        <ele>200</ele>
        <time>2026-06-10T15:21:28.042Z</time>
      </trkpt>
      <trkpt lat="32.60308949507228" lon="35.08254777824613">
        <ele>203</ele>
        <time>2026-06-10T15:21:29.042Z</time>
      </trkpt>
      <trkpt lat="32.60318914658999" lon="35.08271951413273">
        <ele>203</ele>
        <time>2026-06-10T15:21:30.042Z</time>
      </trkpt>
      <trkpt lat="32.60327091671387" lon="35.082964638239844">
        <ele>203</ele>
        <time>2026-06-10T15:21:31.042Z</time>
      </trkpt>
      <trkpt lat="32.60329773880462" lon="35.08334703929753">
        <ele>206</ele>
        <time>2026-06-10T15:21:32.042Z</time>
      </trkpt>
      <trkpt lat="32.60329427510366" lon="35.083934608933184">
        <ele>206</ele>
        <time>2026-06-10T15:21:33.042Z</time>
      </trkpt>
      <trkpt lat="32.60329427510366" lon="35.083934608933184">
        <ele>206</ele>
        <time>2026-06-10T15:21:34.042Z</time>
      </trkpt>
      <trkpt lat="32.6032936409852" lon="35.08404217848276">
        <ele>206</ele>
        <time>2026-06-10T15:21:35.042Z</time>
      </trkpt>
      <trkpt lat="32.60324893750062" lon="35.084273891544505">
        <ele>209</ele>
        <time>2026-06-10T15:21:36.042Z</time>
      </trkpt>
      <trkpt lat="32.60325024135225" lon="35.08437037656539">
        <ele>209</ele>
        <time>2026-06-10T15:21:37.042Z</time>
      </trkpt>
      <trkpt lat="32.60325229026196" lon="35.08450802604499">
        <ele>209</ele>
        <time>2026-06-10T15:21:38.042Z</time>
      </trkpt>
      <trkpt lat="32.603954880027956" lon="35.084428491095345">
        <ele>208</ele>
        <time>2026-06-10T15:21:39.042Z</time>
      </trkpt>
      <trkpt lat="32.60746149586428" lon="35.08389149048682">
        <ele>212</ele>
        <time>2026-06-10T15:21:40.042Z</time>
      </trkpt>
      <trkpt lat="32.610781847181514" lon="35.08373912611021">
        <ele>218</ele>
        <time>2026-06-10T15:21:41.042Z</time>
      </trkpt>
      <trkpt lat="32.611572167535996" lon="35.083745831632896">
        <ele>221</ele>
        <time>2026-06-10T15:21:42.042Z</time>
      </trkpt>
      <trkpt lat="32.61171968903511" lon="35.08373744972953">
        <ele>221</ele>
        <time>2026-06-10T15:21:43.042Z</time>
      </trkpt>
      <trkpt lat="32.6117293747901" lon="35.083779731775365">
        <ele>221</ele>
        <time>2026-06-10T15:21:44.042Z</time>
      </trkpt>
      <trkpt lat="32.611747628712976" lon="35.08381791600178">
        <ele>221</ele>
        <time>2026-06-10T15:21:45.042Z</time>
      </trkpt>
      <trkpt lat="32.61177314695209" lon="35.083849580970025">
        <ele>221</ele>
        <time>2026-06-10T15:21:46.042Z</time>
      </trkpt>
      <trkpt lat="32.611804625655815" lon="35.083872677770394">
        <ele>221</ele>
        <time>2026-06-10T15:21:47.042Z</time>
      </trkpt>
      <trkpt lat="32.611839829649924" lon="35.08388608881577">
        <ele>221</ele>
        <time>2026-06-10T15:21:48.042Z</time>
      </trkpt>
      <trkpt lat="32.6118767100247" lon="35.08388869651903">
        <ele>221</ele>
        <time>2026-06-10T15:21:49.042Z</time>
      </trkpt>
      <trkpt lat="32.61191712942534" lon="35.083878451970484">
        <ele>221</ele>
        <time>2026-06-10T15:21:50.042Z</time>
      </trkpt>
      <trkpt lat="32.61195400980012" lon="35.083855355170115">
        <ele>221</ele>
        <time>2026-06-10T15:21:51.042Z</time>
      </trkpt>
      <trkpt lat="32.61200486001383" lon="35.08377842792373">
        <ele>225</ele>
        <time>2026-06-10T15:21:52.042Z</time>
      </trkpt>
      <trkpt lat="32.61201491829786" lon="35.08373055794233">
        <ele>225</ele>
        <time>2026-06-10T15:21:53.042Z</time>
      </trkpt>
      <trkpt lat="32.61216616508736" lon="35.083728881561655">
        <ele>225</ele>
        <time>2026-06-10T15:21:54.042Z</time>
      </trkpt>
      <trkpt lat="32.61245301244676" lon="35.083698334180525">
        <ele>225</ele>
        <time>2026-06-10T15:21:55.042Z</time>
      </trkpt>
      <trkpt lat="32.61273948727711" lon="35.08363444545048">
        <ele>225</ele>
        <time>2026-06-10T15:21:56.042Z</time>
      </trkpt>
      <trkpt lat="32.612851453728055" lon="35.08358394577557">
        <ele>226.5</ele>
        <time>2026-06-10T15:21:57.042Z</time>
      </trkpt>
      <trkpt lat="32.612851453728055" lon="35.08358394577557">
        <ele>226.5</ele>
        <time>2026-06-10T15:21:58.042Z</time>
      </trkpt>
      <trkpt lat="32.61331187814426" lon="35.083376282827025">
        <ele>228</ele>
        <time>2026-06-10T15:21:59.042Z</time>
      </trkpt>
      <trkpt lat="32.6141398239316" lon="35.082863124076944">
        <ele>228</ele>
        <time>2026-06-10T15:22:00.042Z</time>
      </trkpt>
      <trkpt lat="32.615793666596566" lon="35.081759506801355">
        <ele>220</ele>
        <time>2026-06-10T15:22:01.042Z</time>
      </trkpt>
      <trkpt lat="32.61655623353771" lon="35.08137673321463">
        <ele>218</ele>
        <time>2026-06-10T15:22:02.042Z</time>
      </trkpt>
      <trkpt lat="32.617155819024646" lon="35.081109071100705">
        <ele>216</ele>
        <time>2026-06-10T15:22:03.042Z</time>
      </trkpt>
      <trkpt lat="32.61745570490038" lon="35.080971049092064">
        <ele>216</ele>
        <time>2026-06-10T15:22:04.042Z</time>
      </trkpt>
      <trkpt lat="32.61767568329742" lon="35.08086972119368">
        <ele>216</ele>
        <time>2026-06-10T15:22:05.042Z</time>
      </trkpt>
      <trkpt lat="32.618493757065245" lon="35.08053314120769">
        <ele>222</ele>
        <time>2026-06-10T15:22:06.042Z</time>
      </trkpt>
      <trkpt lat="32.62018392131144" lon="35.080085733832846">
        <ele>228</ele>
        <time>2026-06-10T15:22:07.042Z</time>
      </trkpt>
      <trkpt lat="32.62060897694399" lon="35.07998328834735">
        <ele>226</ele>
        <time>2026-06-10T15:22:08.042Z</time>
      </trkpt>
      <trkpt lat="32.62066616015135" lon="35.07996931850842">
        <ele>226</ele>
        <time>2026-06-10T15:22:09.042Z</time>
      </trkpt>
      <trkpt lat="32.62158444423045" lon="35.07975883960185">
        <ele>231</ele>
        <time>2026-06-10T15:22:10.042Z</time>
      </trkpt>
      <trkpt lat="32.62225033988618" lon="35.0796178373609">
        <ele>233</ele>
        <time>2026-06-10T15:22:11.042Z</time>
      </trkpt>
      <trkpt lat="32.62249043485129" lon="35.07959399550246">
        <ele>233</ele>
        <time>2026-06-10T15:22:12.042Z</time>
      </trkpt>
      <trkpt lat="32.6227433820682" lon="35.07959585814765">
        <ele>233</ele>
        <time>2026-06-10T15:22:13.042Z</time>
      </trkpt>
      <trkpt lat="32.62331409655469" lon="35.07967949091672">
        <ele>237</ele>
        <time>2026-06-10T15:22:14.042Z</time>
      </trkpt>
      <trkpt lat="32.62369966410919" lon="35.07973499774341">
        <ele>243</ele>
        <time>2026-06-10T15:22:15.042Z</time>
      </trkpt>
      <trkpt lat="32.623907349047975" lon="35.07977318196982">
        <ele>243</ele>
        <time>2026-06-10T15:22:16.042Z</time>
      </trkpt>
      <trkpt lat="32.624145767632406" lon="35.079806337054215">
        <ele>243</ele>
        <time>2026-06-10T15:22:17.042Z</time>
      </trkpt>
      <trkpt lat="32.62444025183708" lon="35.07980484693806">
        <ele>243</ele>
        <time>2026-06-10T15:22:18.042Z</time>
      </trkpt>
      <trkpt lat="32.62466823960844" lon="35.0797690841504">
        <ele>247</ele>
        <time>2026-06-10T15:22:19.042Z</time>
      </trkpt>
      <trkpt lat="32.62537138816799" lon="35.07956177174066">
        <ele>251</ele>
        <time>2026-06-10T15:22:20.042Z</time>
      </trkpt>
      <trkpt lat="32.62539318111673" lon="35.07968936293623">
        <ele>251</ele>
        <time>2026-06-10T15:22:21.042Z</time>
      </trkpt>
      <trkpt lat="32.62547122595022" lon="35.07990878253971">
        <ele>251</ele>
        <time>2026-06-10T15:22:22.042Z</time>
      </trkpt>
      <trkpt lat="32.62555504498381" lon="35.08037109107609">
        <ele>245</ele>
        <time>2026-06-10T15:22:23.042Z</time>
      </trkpt>
      <trkpt lat="32.625638305223845" lon="35.0806503015902">
        <ele>245</ele>
        <time>2026-06-10T15:22:24.042Z</time>
      </trkpt>
      <trkpt lat="32.625680959798714" lon="35.080954471549866">
        <ele>238</ele>
        <time>2026-06-10T15:22:25.042Z</time>
      </trkpt>
      <trkpt lat="32.62591509429921" lon="35.08151848051366">
        <ele>238</ele>
        <time>2026-06-10T15:22:26.042Z</time>
      </trkpt>
      <trkpt lat="32.625918819589586" lon="35.0816525909674">
        <ele>231</ele>
        <time>2026-06-10T15:22:27.042Z</time>
      </trkpt>
      <trkpt lat="32.625868528169434" lon="35.081731380858976">
        <ele>231</ele>
        <time>2026-06-10T15:22:28.042Z</time>
      </trkpt>
      <trkpt lat="32.62531178352189" lon="35.08230488931324">
        <ele>236</ele>
        <time>2026-06-10T15:22:29.042Z</time>
      </trkpt>
      <trkpt lat="32.6250815605763" lon="35.08259732460821">
        <ele>227</ele>
        <time>2026-06-10T15:22:30.042Z</time>
      </trkpt>
      <trkpt lat="32.62494710665991" lon="35.0827995211258">
        <ele>227</ele>
        <time>2026-06-10T15:22:31.042Z</time>
      </trkpt>
      <trkpt lat="32.62494710665991" lon="35.0827995211258">
        <ele>227</ele>
        <time>2026-06-10T15:22:32.042Z</time>
      </trkpt>
      <trkpt lat="32.62469301278948" lon="35.08318163640458">
        <ele>227</ele>
        <time>2026-06-10T15:22:33.042Z</time>
      </trkpt>
      <trkpt lat="32.623974218010325" lon="35.08395705559754">
        <ele>218</ele>
        <time>2026-06-10T15:22:34.042Z</time>
      </trkpt>
      <trkpt lat="32.623546554674505" lon="35.08435547540386">
        <ele>212</ele>
        <time>2026-06-10T15:22:35.042Z</time>
      </trkpt>
      <trkpt lat="32.62330087177383" lon="35.08460674624011">
        <ele>212</ele>
        <time>2026-06-10T15:22:36.042Z</time>
      </trkpt>
      <trkpt lat="32.62291958830326" lon="35.085075015241095">
        <ele>207</ele>
        <time>2026-06-10T15:22:37.042Z</time>
      </trkpt>
      <trkpt lat="32.62268470874469" lon="35.08525606435364">
        <ele>203</ele>
        <time>2026-06-10T15:22:38.042Z</time>
      </trkpt>
      <trkpt lat="32.62262845685993" lon="35.08534882408415">
        <ele>203</ele>
        <time>2026-06-10T15:22:39.042Z</time>
      </trkpt>
      <trkpt lat="32.622447594011895" lon="35.0855717827135">
        <ele>203</ele>
        <time>2026-06-10T15:22:40.042Z</time>
      </trkpt>
      <trkpt lat="32.62230454286124" lon="35.085717441567425">
        <ele>203</ele>
        <time>2026-06-10T15:22:41.042Z</time>
      </trkpt>
      <trkpt lat="32.6222505261507" lon="35.085810946356006">
        <ele>204</ele>
        <time>2026-06-10T15:22:42.042Z</time>
      </trkpt>
      <trkpt lat="32.622191294033634" lon="35.08600969059787">
        <ele>204</ele>
        <time>2026-06-10T15:22:43.042Z</time>
      </trkpt>
      <trkpt lat="32.6221821670722" lon="35.08624643280163">
        <ele>204</ele>
        <time>2026-06-10T15:22:44.042Z</time>
      </trkpt>
      <trkpt lat="32.62219092150459" lon="35.086276048860164">
        <ele>204</ele>
        <time>2026-06-10T15:22:45.042Z</time>
      </trkpt>
      <trkpt lat="32.62220582266612" lon="35.0863261540158">
        <ele>204</ele>
        <time>2026-06-10T15:22:46.042Z</time>
      </trkpt>
      <trkpt lat="32.62215925653635" lon="35.08634403540963">
        <ele>204</ele>
        <time>2026-06-10T15:22:47.042Z</time>
      </trkpt>
      <trkpt lat="32.622038929657016" lon="35.086400846087955">
        <ele>204</ele>
        <time>2026-06-10T15:22:48.042Z</time>
      </trkpt>
      <trkpt lat="32.621899119058035" lon="35.086434442815936">
        <ele>204</ele>
        <time>2026-06-10T15:22:49.042Z</time>
      </trkpt>
      <trkpt lat="32.621899119058035" lon="35.086434442815936">
        <ele>204</ele>
        <time>2026-06-10T15:22:50.042Z</time>
      </trkpt>
      <trkpt lat="32.62186607618331" lon="35.086442383075706">
        <ele>204</ele>
        <time>2026-06-10T15:22:51.042Z</time>
      </trkpt>
      <trkpt lat="32.62181801993738" lon="35.08646063699858">
        <ele>204</ele>
        <time>2026-06-10T15:22:52.042Z</time>
      </trkpt>
      <trkpt lat="32.62168316442556" lon="35.086501242663736">
        <ele>204</ele>
        <time>2026-06-10T15:22:53.042Z</time>
      </trkpt>
      <trkpt lat="32.621111891145524" lon="35.08717756913254">
        <ele>215</ele>
        <time>2026-06-10T15:22:54.042Z</time>
      </trkpt>
      <trkpt lat="32.620707324610066" lon="35.087513590324974">
        <ele>214</ele>
        <time>2026-06-10T15:22:55.042Z</time>
      </trkpt>
      <trkpt lat="32.62064362214454" lon="35.08756630318388">
        <ele>214</ele>
        <time>2026-06-10T15:22:56.042Z</time>
      </trkpt>
      <trkpt lat="32.62056147949163" lon="35.08813403743805">
        <ele>214</ele>
        <time>2026-06-10T15:22:57.042Z</time>
      </trkpt>
      <trkpt lat="32.62076208637868" lon="35.08933693370231">
        <ele>198</ele>
        <time>2026-06-10T15:22:58.042Z</time>
      </trkpt>
      <trkpt lat="32.62053577498799" lon="35.091009775348226">
        <ele>179</ele>
        <time>2026-06-10T15:22:59.042Z</time>
      </trkpt>
      <trkpt lat="32.620492561619564" lon="35.091103838930366">
        <ele>179</ele>
        <time>2026-06-10T15:23:00.042Z</time>
      </trkpt>
      <trkpt lat="32.62041395799251" lon="35.09127669240408">
        <ele>179</ele>
        <time>2026-06-10T15:23:01.042Z</time>
      </trkpt>
      <trkpt lat="32.62003286078646" lon="35.0918721800716">
        <ele>172</ele>
        <time>2026-06-10T15:23:02.042Z</time>
      </trkpt>
      <trkpt lat="32.61997921660496" lon="35.09196233209883">
        <ele>172</ele>
        <time>2026-06-10T15:23:03.042Z</time>
      </trkpt>
      <trkpt lat="32.619876026061384" lon="35.092190692399235">
        <ele>172</ele>
        <time>2026-06-10T15:23:04.042Z</time>
      </trkpt>
      <trkpt lat="32.61979928507952" lon="35.09239986745417">
        <ele>172</ele>
        <time>2026-06-10T15:23:05.042Z</time>
      </trkpt>
      <trkpt lat="32.61968175216798" lon="35.09330362290078">
        <ele>164</ele>
        <time>2026-06-10T15:23:06.042Z</time>
      </trkpt>
      <trkpt lat="32.61954875930135" lon="35.093597175782854">
        <ele>164</ele>
        <time>2026-06-10T15:23:07.042Z</time>
      </trkpt>
      <trkpt lat="32.618828474406044" lon="35.09475238833023">
        <ele>170</ele>
        <time>2026-06-10T15:23:08.042Z</time>
      </trkpt>
      <trkpt lat="32.61879066270867" lon="35.09491984013289">
        <ele>170</ele>
        <time>2026-06-10T15:23:09.042Z</time>
      </trkpt>
      <trkpt lat="32.61884616953536" lon="35.09561311667293">
        <ele>160</ele>
        <time>2026-06-10T15:23:10.042Z</time>
      </trkpt>
      <trkpt lat="32.61879066270867" lon="35.095780754740105">
        <ele>158</ele>
        <time>2026-06-10T15:23:11.042Z</time>
      </trkpt>
      <trkpt lat="32.618696550085005" lon="35.09595648460456">
        <ele>160.5</ele>
        <time>2026-06-10T15:23:12.042Z</time>
      </trkpt>
      <trkpt lat="32.618696550085005" lon="35.09595648460456">
        <ele>160.5</ele>
        <time>2026-06-10T15:23:13.042Z</time>
      </trkpt>
      <trkpt lat="32.6185479600403" lon="35.096233936315045">
        <ele>163</ele>
        <time>2026-06-10T15:23:14.042Z</time>
      </trkpt>
      <trkpt lat="32.61855801832433" lon="35.09640027053059">
        <ele>163</ele>
        <time>2026-06-10T15:23:15.042Z</time>
      </trkpt>
      <trkpt lat="32.61855801832433" lon="35.09640027053059">
        <ele>163</ele>
        <time>2026-06-10T15:23:16.042Z</time>
      </trkpt>
      <trkpt lat="32.61856491011154" lon="35.096515568267904">
        <ele>163</ele>
        <time>2026-06-10T15:23:17.042Z</time>
      </trkpt>
      <trkpt lat="32.618771291198684" lon="35.09664297319896">
        <ele>157</ele>
        <time>2026-06-10T15:23:18.042Z</time>
      </trkpt>
      <trkpt lat="32.61894675237566" lon="35.09680520959508">
        <ele>157</ele>
        <time>2026-06-10T15:23:19.042Z</time>
      </trkpt>
      <trkpt lat="32.619068569371144" lon="35.097000414811085">
        <ele>157</ele>
        <time>2026-06-10T15:23:20.042Z</time>
      </trkpt>
      <trkpt lat="32.61917939676" lon="35.097041393005284">
        <ele>157</ele>
        <time>2026-06-10T15:23:21.042Z</time>
      </trkpt>
      <trkpt lat="32.61917939676" lon="35.097041393005284">
        <ele>157</ele>
        <time>2026-06-10T15:23:22.042Z</time>
      </trkpt>
      <trkpt lat="32.61931462480086" lon="35.09709187068996">
        <ele>157</ele>
        <time>2026-06-10T15:23:23.042Z</time>
      </trkpt>
      <trkpt lat="32.61952733888165" lon="35.09737853178483">
        <ele>180</ele>
        <time>2026-06-10T15:23:24.042Z</time>
      </trkpt>
      <trkpt lat="32.61953721090117" lon="35.09745396891506">
        <ele>176</ele>
        <time>2026-06-10T15:23:25.042Z</time>
      </trkpt>
      <trkpt lat="32.61956276749554" lon="35.097700808216764">
        <ele>174</ele>
        <time>2026-06-10T15:23:26.042Z</time>
      </trkpt>
      <trkpt lat="32.61956276749554" lon="35.097700808216764">
        <ele>174</ele>
        <time>2026-06-10T15:23:27.042Z</time>
      </trkpt>
      <trkpt lat="32.61962885304456" lon="35.09833909790976">
        <ele>172</ele>
        <time>2026-06-10T15:23:28.042Z</time>
      </trkpt>
      <trkpt lat="32.619205473792675" lon="35.099628420910875">
        <ele>152</ele>
        <time>2026-06-10T15:23:29.042Z</time>
      </trkpt>
      <trkpt lat="32.61912538004947" lon="35.10013953075125">
        <ele>153</ele>
        <time>2026-06-10T15:23:30.042Z</time>
      </trkpt>
      <trkpt lat="32.61912538004947" lon="35.10034144148994">
        <ele>153</ele>
        <time>2026-06-10T15:23:31.042Z</time>
      </trkpt>
      <trkpt lat="32.619231923354384" lon="35.10073464588973">
        <ele>153</ele>
        <time>2026-06-10T15:23:32.042Z</time>
      </trkpt>
      <trkpt lat="32.619357838169286" lon="35.100890735556725">
        <ele>146</ele>
        <time>2026-06-10T15:23:33.042Z</time>
      </trkpt>
      <trkpt lat="32.61946102871286" lon="35.10095574187388">
        <ele>146</ele>
        <time>2026-06-10T15:23:34.042Z</time>
      </trkpt>
      <trkpt lat="32.6195716698372" lon="35.10100938605538">
        <ele>158</ele>
        <time>2026-06-10T15:23:35.042Z</time>
      </trkpt>
      <trkpt lat="32.619945316462484" lon="35.101096744114834">
        <ele>158</ele>
        <time>2026-06-10T15:23:36.042Z</time>
      </trkpt>
      <trkpt lat="32.6205631558723" lon="35.10130275267294">
        <ele>160</ele>
        <time>2026-06-10T15:23:37.042Z</time>
      </trkpt>
      <trkpt lat="32.621009818189066" lon="35.10142494219746">
        <ele>160</ele>
        <time>2026-06-10T15:23:38.042Z</time>
      </trkpt>
      <trkpt lat="32.62145983326718" lon="35.10158885497426">
        <ele>140</ele>
        <time>2026-06-10T15:23:39.042Z</time>
      </trkpt>
      <trkpt lat="32.622005402043584" lon="35.10181796033274">
        <ele>138</ele>
        <time>2026-06-10T15:23:40.042Z</time>
      </trkpt>
      <trkpt lat="32.62219222535623" lon="35.101840870868585">
        <ele>138</ele>
        <time>2026-06-10T15:23:41.042Z</time>
      </trkpt>
      <trkpt lat="32.62231050332585" lon="35.10177605081594">
        <ele>138</ele>
        <time>2026-06-10T15:23:42.042Z</time>
      </trkpt>
      <trkpt lat="32.62254705926509" lon="35.101722592898966">
        <ele>138</ele>
        <time>2026-06-10T15:23:43.042Z</time>
      </trkpt>
      <trkpt lat="32.62275437167483" lon="35.101766923854505">
        <ele>138</ele>
        <time>2026-06-10T15:23:44.042Z</time>
      </trkpt>
      <trkpt lat="32.62287134579282" lon="35.10186378140443">
        <ele>139</ele>
        <time>2026-06-10T15:23:45.042Z</time>
      </trkpt>
      <trkpt lat="32.62307344279603" lon="35.102073515252926">
        <ele>139</ele>
        <time>2026-06-10T15:23:46.042Z</time>
      </trkpt>
      <trkpt lat="32.62315577171346" lon="35.102230349977994">
        <ele>139</ele>
        <time>2026-06-10T15:23:47.042Z</time>
      </trkpt>
      <trkpt lat="32.62323921821801" lon="35.1024821796078">
        <ele>132</ele>
        <time>2026-06-10T15:23:48.042Z</time>
      </trkpt>
      <trkpt lat="32.62322655223071" lon="35.10249577691769">
        <ele>132</ele>
        <time>2026-06-10T15:23:49.042Z</time>
      </trkpt>
      <trkpt lat="32.62320792577881" lon="35.10251607975027">
        <ele>132</ele>
        <time>2026-06-10T15:23:50.042Z</time>
      </trkpt>
      <trkpt lat="32.6230868538414" lon="35.10264888635238">
        <ele>132</ele>
        <time>2026-06-10T15:23:51.042Z</time>
      </trkpt>
      <trkpt lat="32.622910461341824" lon="35.102689305753024">
        <ele>132</ele>
        <time>2026-06-10T15:23:52.042Z</time>
      </trkpt>
      <trkpt lat="32.622840307403024" lon="35.10269562776495">
        <ele>133</ele>
        <time>2026-06-10T15:23:53.042Z</time>
      </trkpt>
      <trkpt lat="32.622840307403024" lon="35.10269562776495">
        <ele>133</ele>
        <time>2026-06-10T15:23:54.042Z</time>
      </trkpt>
      <trkpt lat="32.622910461341824" lon="35.102689305753024">
        <ele>132</ele>
        <time>2026-06-10T15:23:55.042Z</time>
      </trkpt>
      <trkpt lat="32.6230868538414" lon="35.10264888635238">
        <ele>132</ele>
        <time>2026-06-10T15:23:56.042Z</time>
      </trkpt>
      <trkpt lat="32.62315092883596" lon="35.10280199578707">
        <ele>132</ele>
        <time>2026-06-10T15:23:57.042Z</time>
      </trkpt>
      <trkpt lat="32.62331204764497" lon="35.10290816656295">
        <ele>132</ele>
        <time>2026-06-10T15:23:58.042Z</time>
      </trkpt>
      <trkpt lat="32.623607835701286" lon="35.10324195258115">
        <ele>132</ele>
        <time>2026-06-10T15:23:59.042Z</time>
      </trkpt>
      <trkpt lat="32.62372089826437" lon="35.103324840292146">
        <ele>131</ele>
        <time>2026-06-10T15:24:00.042Z</time>
      </trkpt>
      <trkpt lat="32.62422493005302" lon="35.10353382908256">
        <ele>131</ele>
        <time>2026-06-10T15:24:01.042Z</time>
      </trkpt>
      <trkpt lat="32.62455685342603" lon="35.10363999985844">
        <ele>126</ele>
        <time>2026-06-10T15:24:02.042Z</time>
      </trkpt>
      <trkpt lat="32.6247459119129" lon="35.10373182826635">
        <ele>126</ele>
        <time>2026-06-10T15:24:03.042Z</time>
      </trkpt>
      <trkpt lat="32.62483215238524" lon="35.10375324868604">
        <ele>126</ele>
        <time>2026-06-10T15:24:04.042Z</time>
      </trkpt>
      <trkpt lat="32.624863817353486" lon="35.10405443841341">
        <ele>126</ele>
        <time>2026-06-10T15:24:05.042Z</time>
      </trkpt>
      <trkpt lat="32.62443019355305" lon="35.10471977527558">
        <ele>145</ele>
        <time>2026-06-10T15:24:06.042Z</time>
      </trkpt>
      <trkpt lat="32.62437912740735" lon="35.10481424519708">
        <ele>148</ele>
        <time>2026-06-10T15:24:07.042Z</time>
      </trkpt>
      <trkpt lat="32.62437912740735" lon="35.10481424519708">
        <ele>148</ele>
        <time>2026-06-10T15:24:08.042Z</time>
      </trkpt>
      <trkpt lat="32.62404164576623" lon="35.10543857005474">
        <ele>151</ele>
        <time>2026-06-10T15:24:09.042Z</time>
      </trkpt>
      <trkpt lat="32.623896918234905" lon="35.10630730777176">
        <ele>159</ele>
        <time>2026-06-10T15:24:10.042Z</time>
      </trkpt>
      <trkpt lat="32.6234089051949" lon="35.106404165321685">
        <ele>176</ele>
        <time>2026-06-10T15:24:11.042Z</time>
      </trkpt>
      <trkpt lat="32.623120567719354" lon="35.10642390936071">
        <ele>176</ele>
        <time>2026-06-10T15:24:12.042Z</time>
      </trkpt>
      <trkpt lat="32.6229395186068" lon="35.106436389083484">
        <ele>176</ele>
        <time>2026-06-10T15:24:13.042Z</time>
      </trkpt>
      <trkpt lat="32.6225930666013" lon="35.10656025498868">
        <ele>188</ele>
        <time>2026-06-10T15:24:14.042Z</time>
      </trkpt>
      <trkpt lat="32.62241276254682" lon="35.10660682111845">
        <ele>187</ele>
        <time>2026-06-10T15:24:15.042Z</time>
      </trkpt>
      <trkpt lat="32.622202283640256" lon="35.10671634465567">
        <ele>187</ele>
        <time>2026-06-10T15:24:16.042Z</time>
      </trkpt>
      <trkpt lat="32.622022724643855" lon="35.10684076935442">
        <ele>187</ele>
        <time>2026-06-10T15:24:17.042Z</time>
      </trkpt>
      <trkpt lat="32.621805726479124" lon="35.106876159613044">
        <ele>183</ele>
        <time>2026-06-10T15:24:18.042Z</time>
      </trkpt>
      <trkpt lat="32.62131212550354" lon="35.106884914045445">
        <ele>183</ele>
        <time>2026-06-10T15:24:19.042Z</time>
      </trkpt>
      <trkpt lat="32.6212902223639" lon="35.106887250923165">
        <ele>181</ele>
        <time>2026-06-10T15:24:20.042Z</time>
      </trkpt>
      <trkpt lat="32.6212902223639" lon="35.106887250923165">
        <ele>181</ele>
        <time>2026-06-10T15:24:21.042Z</time>
      </trkpt>
      <trkpt lat="32.6208110739472" lon="35.10693837196242">
        <ele>179</ele>
        <time>2026-06-10T15:24:22.042Z</time>
      </trkpt>
      <trkpt lat="32.619574277540465" lon="35.10701976955726">
        <ele>179</ele>
        <time>2026-06-10T15:24:23.042Z</time>
      </trkpt>
      <trkpt lat="32.61924607945784" lon="35.107007289834485">
        <ele>178</ele>
        <time>2026-06-10T15:24:24.042Z</time>
      </trkpt>
      <trkpt lat="32.619070432016336" lon="35.106953645652986">
        <ele>178</ele>
        <time>2026-06-10T15:24:25.042Z</time>
      </trkpt>
      <trkpt lat="32.61895345789835" lon="35.106836485270485">
        <ele>178</ele>
        <time>2026-06-10T15:24:26.042Z</time>
      </trkpt>
      <trkpt lat="32.61895364416287" lon="35.10689497232948">
        <ele>178</ele>
        <time>2026-06-10T15:24:27.042Z</time>
      </trkpt>
      <trkpt lat="32.618977486021315" lon="35.108301269448575">
        <ele>194</ele>
        <time>2026-06-10T15:24:28.042Z</time>
      </trkpt>
      <trkpt lat="32.61873403829487" lon="35.10865032915734">
        <ele>194</ele>
        <time>2026-06-10T15:24:29.042Z</time>
      </trkpt>
      <trkpt lat="32.61870572608797" lon="35.10878779237243">
        <ele>194</ele>
        <time>2026-06-10T15:24:30.042Z</time>
      </trkpt>
      <trkpt lat="32.618665865480885" lon="35.1089572930848">
        <ele>194</ele>
        <time>2026-06-10T15:24:31.042Z</time>
      </trkpt>
      <trkpt lat="32.618631220280335" lon="35.109104255790356">
        <ele>193</ele>
        <time>2026-06-10T15:24:32.042Z</time>
      </trkpt>
      <trkpt lat="32.6186172504414" lon="35.109210985359795">
        <ele>193</ele>
        <time>2026-06-10T15:24:33.042Z</time>
      </trkpt>
      <trkpt lat="32.61859173220228" lon="35.109306911587126">
        <ele>193</ele>
        <time>2026-06-10T15:24:34.042Z</time>
      </trkpt>
      <trkpt lat="32.6185244907109" lon="35.10959562159171">
        <ele>193</ele>
        <time>2026-06-10T15:24:35.042Z</time>
      </trkpt>
      <trkpt lat="32.6182903562104" lon="35.11060331263997">
        <ele>191</ele>
        <time>2026-06-10T15:24:36.042Z</time>
      </trkpt>
      <trkpt lat="32.6182259086868" lon="35.11066198596348">
        <ele>191</ele>
        <time>2026-06-10T15:24:37.042Z</time>
      </trkpt>
      <trkpt lat="32.6182259086868" lon="35.11066198596348">
        <ele>191</ele>
        <time>2026-06-10T15:24:38.042Z</time>
      </trkpt>
      <trkpt lat="32.6182259086868" lon="35.11066198596348">
        <ele>191</ele>
        <time>2026-06-10T15:24:39.042Z</time>
      </trkpt>
      <trkpt lat="32.61817021559559" lon="35.11083502570171">
        <ele>189</ele>
        <time>2026-06-10T15:24:40.042Z</time>
      </trkpt>
      <trkpt lat="32.61810930709785" lon="35.11115726331973">
        <ele>189</ele>
        <time>2026-06-10T15:24:41.042Z</time>
      </trkpt>
      <trkpt lat="32.618072426723074" lon="35.11132005850941">
        <ele>189</ele>
        <time>2026-06-10T15:24:42.042Z</time>
      </trkpt>
      <trkpt lat="32.61795042346307" lon="35.111755172425994">
        <ele>184</ele>
        <time>2026-06-10T15:24:43.042Z</time>
      </trkpt>
      <trkpt lat="32.61795303116634" lon="35.11281315489441">
        <ele>177</ele>
        <time>2026-06-10T15:24:44.042Z</time>
      </trkpt>
      <trkpt lat="32.61784071366133" lon="35.11359174058419">
        <ele>177</ele>
        <time>2026-06-10T15:24:45.042Z</time>
      </trkpt>
      <trkpt lat="32.61788672099755" lon="35.113935398621905">
        <ele>177</ele>
        <time>2026-06-10T15:24:46.042Z</time>
      </trkpt>
      <trkpt lat="32.61796178559874" lon="35.11421293275534">
        <ele>171</ele>
        <time>2026-06-10T15:24:47.042Z</time>
      </trkpt>
      <trkpt lat="32.61803591887733" lon="35.11504087854268">
        <ele>162</ele>
        <time>2026-06-10T15:24:48.042Z</time>
      </trkpt>
      <trkpt lat="32.61809384714277" lon="35.11598598471252">
        <ele>151</ele>
        <time>2026-06-10T15:24:49.042Z</time>
      </trkpt>
      <trkpt lat="32.61817822496992" lon="35.11651236824346">
        <ele>151</ele>
        <time>2026-06-10T15:24:50.042Z</time>
      </trkpt>
      <trkpt lat="32.61823838840958" lon="35.11727474892008">
        <ele>141</ele>
        <time>2026-06-10T15:24:51.042Z</time>
      </trkpt>
      <trkpt lat="32.61829091500396" lon="35.11789370591701">
        <ele>131</ele>
        <time>2026-06-10T15:24:52.042Z</time>
      </trkpt>
      <trkpt lat="32.61812681596265" lon="35.117990749731455">
        <ele>131</ele>
        <time>2026-06-10T15:24:53.042Z</time>
      </trkpt>
      <trkpt lat="32.617978921934494" lon="35.11802763010623">
        <ele>131</ele>
        <time>2026-06-10T15:24:54.042Z</time>
      </trkpt>
      <trkpt lat="32.61787498633284" lon="35.11807699020379">
        <ele>131</ele>
        <time>2026-06-10T15:24:55.042Z</time>
      </trkpt>
      <trkpt lat="32.61778521881922" lon="35.11818685886955">
        <ele>132.5</ele>
        <time>2026-06-10T15:24:56.042Z</time>
      </trkpt>
      <trkpt lat="32.61778521881922" lon="35.11818685886955">
        <ele>132.5</ele>
        <time>2026-06-10T15:24:57.042Z</time>
      </trkpt>
      <trkpt lat="32.61755889544395" lon="35.11846386160993">
        <ele>134</ele>
        <time>2026-06-10T15:24:58.042Z</time>
      </trkpt>
      <trkpt lat="32.61719195434135" lon="35.11904686955467">
        <ele>134</ele>
        <time>2026-06-10T15:24:59.042Z</time>
      </trkpt>
      <trkpt lat="32.61711688974016" lon="35.119113924781544">
        <ele>143</ele>
        <time>2026-06-10T15:25:00.042Z</time>
      </trkpt>
      <trkpt lat="32.61700382717707" lon="35.11917092172438">
        <ele>143</ele>
        <time>2026-06-10T15:25:01.042Z</time>
      </trkpt>
      <trkpt lat="32.61678887792205" lon="35.11922382084781">
        <ele>143</ele>
        <time>2026-06-10T15:25:02.042Z</time>
      </trkpt>
      <trkpt lat="32.61650296188525" lon="35.119205753189455">
        <ele>143</ele>
        <time>2026-06-10T15:25:03.042Z</time>
      </trkpt>
      <trkpt lat="32.61602388954216" lon="35.11902097878652">
        <ele>154</ele>
        <time>2026-06-10T15:25:04.042Z</time>
      </trkpt>
      <trkpt lat="32.615810989196845" lon="35.11897795168261">
        <ele>154</ele>
        <time>2026-06-10T15:25:05.042Z</time>
      </trkpt>
      <trkpt lat="32.615286840840135" lon="35.119000862218456">
        <ele>167</ele>
        <time>2026-06-10T15:25:06.042Z</time>
      </trkpt>
      <trkpt lat="32.61440748604553" lon="35.119189548176294">
        <ele>154</ele>
        <time>2026-06-10T15:25:07.042Z</time>
      </trkpt>
      <trkpt lat="32.61432888241848" lon="35.11923183022213">
        <ele>154</ele>
        <time>2026-06-10T15:25:08.042Z</time>
      </trkpt>
      <trkpt lat="32.614010742619875" lon="35.11946335701935">
        <ele>154</ele>
        <time>2026-06-10T15:25:09.042Z</time>
      </trkpt>
      <trkpt lat="32.61384198696558" lon="35.11948887525847">
        <ele>154</ele>
        <time>2026-06-10T15:25:10.042Z</time>
      </trkpt>
      <trkpt lat="32.613731904634804" lon="35.11947285650982">
        <ele>154</ele>
        <time>2026-06-10T15:25:11.042Z</time>
      </trkpt>
      <trkpt lat="32.61339383453266" lon="35.11957790969859">
        <ele>159</ele>
        <time>2026-06-10T15:25:12.042Z</time>
      </trkpt>
      <trkpt lat="32.613068057888775" lon="35.11969898163599">
        <ele>159</ele>
        <time>2026-06-10T15:25:13.042Z</time>
      </trkpt>
      <trkpt lat="32.61295182882887" lon="35.11975784122403">
        <ele>159</ele>
        <time>2026-06-10T15:25:14.042Z</time>
      </trkpt>
      <trkpt lat="32.6126729908438" lon="35.11996496736925">
        <ele>155</ele>
        <time>2026-06-10T15:25:15.042Z</time>
      </trkpt>
      <trkpt lat="32.61261990545586" lon="35.120031836331606">
        <ele>155</ele>
        <time>2026-06-10T15:25:16.042Z</time>
      </trkpt>
      <trkpt lat="32.61247387407289" lon="35.12036487729173">
        <ele>155</ele>
        <time>2026-06-10T15:25:17.042Z</time>
      </trkpt>
      <trkpt lat="32.61237981049075" lon="35.120478498648374">
        <ele>155</ele>
        <time>2026-06-10T15:25:18.042Z</time>
      </trkpt>
      <trkpt lat="32.612373850026145" lon="35.12048296899683">
        <ele>155</ele>
        <time>2026-06-10T15:25:19.042Z</time>
      </trkpt>
      <trkpt lat="32.61227699247622" lon="35.12048296899683">
        <ele>155</ele>
        <time>2026-06-10T15:25:20.042Z</time>
      </trkpt>
      <trkpt lat="32.61203596618852" lon="35.12033097714926">
        <ele>155</ele>
        <time>2026-06-10T15:25:21.042Z</time>
      </trkpt>
      <trkpt lat="32.61195903894214" lon="35.12022201240559">
        <ele>173</ele>
        <time>2026-06-10T15:25:22.042Z</time>
      </trkpt>
      <trkpt lat="32.61195028450974" lon="35.12016203523044">
        <ele>173</ele>
        <time>2026-06-10T15:25:23.042Z</time>
      </trkpt>
      <trkpt lat="32.611692121886286" lon="35.120339917846174">
        <ele>173</ele>
        <time>2026-06-10T15:25:24.042Z</time>
      </trkpt>
      <trkpt lat="32.61132648463532" lon="35.12042615831851">
        <ele>173</ele>
        <time>2026-06-10T15:25:25.042Z</time>
      </trkpt>
      <trkpt lat="32.610814257207835" lon="35.12076497347873">
        <ele>201</ele>
        <time>2026-06-10T15:25:26.042Z</time>
      </trkpt>
      <trkpt lat="32.6107026847609" lon="35.1207705614143">
        <ele>201</ele>
        <time>2026-06-10T15:25:27.042Z</time>
      </trkpt>
      <trkpt lat="32.61061607175952" lon="35.120764787214206">
        <ele>201</ele>
        <time>2026-06-10T15:25:28.042Z</time>
      </trkpt>
      <trkpt lat="32.6105514379714" lon="35.12102257730862">
        <ele>201</ele>
        <time>2026-06-10T15:25:29.042Z</time>
      </trkpt>
      <trkpt lat="32.61050747954489" lon="35.12118518623379">
        <ele>201</ele>
        <time>2026-06-10T15:25:30.042Z</time>
      </trkpt>
      <trkpt lat="32.61024056248905" lon="35.121307934551865">
        <ele>217</ele>
        <time>2026-06-10T15:25:31.042Z</time>
      </trkpt>
      <trkpt lat="32.61009385108618" lon="35.12140836611951">
        <ele>211</ele>
        <time>2026-06-10T15:25:32.042Z</time>
      </trkpt>
      <trkpt lat="32.61009385108618" lon="35.12140836611951">
        <ele>211</ele>
        <time>2026-06-10T15:25:33.042Z</time>
      </trkpt>
      <trkpt lat="32.6096087532403" lon="35.12174044076518">
        <ele>205</ele>
        <time>2026-06-10T15:25:34.042Z</time>
      </trkpt>
      <trkpt lat="32.609254478125" lon="35.121884423238434">
        <ele>207</ele>
        <time>2026-06-10T15:25:35.042Z</time>
      </trkpt>
      <trkpt lat="32.60902425517941" lon="35.12189615790314">
        <ele>207</ele>
        <time>2026-06-10T15:25:36.042Z</time>
      </trkpt>
      <trkpt lat="32.60885326435089" lon="35.12196544830424">
        <ele>207</ele>
        <time>2026-06-10T15:25:37.042Z</time>
      </trkpt>
      <trkpt lat="32.60679243371172" lon="35.12239907210467">
        <ele>190</ele>
        <time>2026-06-10T15:25:38.042Z</time>
      </trkpt>
      <trkpt lat="32.6064057485701" lon="35.12228433316091">
        <ele>203</ele>
        <time>2026-06-10T15:25:39.042Z</time>
      </trkpt>
      <trkpt lat="32.60629108750726" lon="35.12221265581995">
        <ele>203</ele>
        <time>2026-06-10T15:25:40.042Z</time>
      </trkpt>
      <trkpt lat="32.60629108750726" lon="35.12221265581995">
        <ele>203</ele>
        <time>2026-06-10T15:25:41.042Z</time>
      </trkpt>
      <trkpt lat="32.606217435141296" lon="35.12216661398485">
        <ele>203</ele>
        <time>2026-06-10T15:25:42.042Z</time>
      </trkpt>
      <trkpt lat="32.60612709684954" lon="35.12217611347533">
        <ele>197</ele>
        <time>2026-06-10T15:25:43.042Z</time>
      </trkpt>
      <trkpt lat="32.605946047736985" lon="35.12219492619175">
        <ele>197</ele>
        <time>2026-06-10T15:25:44.042Z</time>
      </trkpt>
      <trkpt lat="32.60560089958312" lon="35.121868963283355">
        <ele>197</ele>
        <time>2026-06-10T15:25:45.042Z</time>
      </trkpt>
      <trkpt lat="32.604635863109735" lon="35.12122094902145">
        <ele>206</ele>
        <time>2026-06-10T15:25:46.042Z</time>
      </trkpt>
      <trkpt lat="32.60396065422805" lon="35.12090467186804">
        <ele>211</ele>
        <time>2026-06-10T15:25:47.042Z</time>
      </trkpt>
      <trkpt lat="32.601060143136834" lon="35.1195507150788">
        <ele>196</ele>
        <time>2026-06-10T15:25:48.042Z</time>
      </trkpt>
      <trkpt lat="32.60106293710462" lon="35.119900706110165">
        <ele>198</ele>
        <time>2026-06-10T15:25:49.042Z</time>
      </trkpt>
      <trkpt lat="32.601078024530665" lon="35.120193327669654">
        <ele>198</ele>
        <time>2026-06-10T15:25:50.042Z</time>
      </trkpt>
      <trkpt lat="32.60105027111732" lon="35.120392444440554">
        <ele>198</ele>
        <time>2026-06-10T15:25:51.042Z</time>
      </trkpt>
      <trkpt lat="32.60102810563955" lon="35.1204524216157">
        <ele>198</ele>
        <time>2026-06-10T15:25:52.042Z</time>
      </trkpt>
      <trkpt lat="32.60089809300523" lon="35.12031309575542">
        <ele>198</ele>
        <time>2026-06-10T15:25:53.042Z</time>
      </trkpt>
      <trkpt lat="32.60063396991716" lon="35.12001991540238">
        <ele>198</ele>
        <time>2026-06-10T15:25:54.042Z</time>
      </trkpt>
      <trkpt lat="32.60052928925744" lon="35.11994373321407">
        <ele>198</ele>
        <time>2026-06-10T15:25:55.042Z</time>
      </trkpt>
      <trkpt lat="32.60012770295429" lon="35.11978429078574">
        <ele>189</ele>
        <time>2026-06-10T15:25:56.042Z</time>
      </trkpt>
      <trkpt lat="32.599820366497795" lon="35.11970009922311">
        <ele>189</ele>
        <time>2026-06-10T15:25:57.042Z</time>
      </trkpt>
      <trkpt lat="32.599600388100754" lon="35.11966321884833">
        <ele>189</ele>
        <time>2026-06-10T15:25:58.042Z</time>
      </trkpt>
      <trkpt lat="32.59936699865834" lon="35.11966042488054">
        <ele>190</ele>
        <time>2026-06-10T15:25:59.042Z</time>
      </trkpt>
      <trkpt lat="32.59925486741785" lon="35.11963546543499">
        <ele>190</ele>
        <time>2026-06-10T15:26:00.042Z</time>
      </trkpt>
      <trkpt lat="32.59917514620368" lon="35.1195887130407">
        <ele>190</ele>
        <time>2026-06-10T15:26:01.042Z</time>
      </trkpt>
      <trkpt lat="32.599007135607465" lon="35.11940636007651">
        <ele>190</ele>
        <time>2026-06-10T15:26:02.042Z</time>
      </trkpt>
      <trkpt lat="32.59895703045183" lon="35.11930875746851">
        <ele>190</ele>
        <time>2026-06-10T15:26:03.042Z</time>
      </trkpt>
      <trkpt lat="32.598837262366054" lon="35.11895951149522">
        <ele>189</ele>
        <time>2026-06-10T15:26:04.042Z</time>
      </trkpt>
      <trkpt lat="32.59862994995631" lon="35.118789451989294">
        <ele>201</ele>
        <time>2026-06-10T15:26:05.042Z</time>
      </trkpt>
      <trkpt lat="32.59842245128205" lon="35.118579531876286">
        <ele>201</ele>
        <time>2026-06-10T15:26:06.042Z</time>
      </trkpt>
      <trkpt lat="32.59767869705734" lon="35.1182537552324">
        <ele>214</ele>
        <time>2026-06-10T15:26:07.042Z</time>
      </trkpt>
      <trkpt lat="32.5974743648799" lon="35.118257480522786">
        <ele>214</ele>
        <time>2026-06-10T15:26:08.042Z</time>
      </trkpt>
      <trkpt lat="32.59732181423877" lon="35.118221158941566">
        <ele>217</ele>
        <time>2026-06-10T15:26:09.042Z</time>
      </trkpt>
      <trkpt lat="32.59714802944246" lon="35.118221158941566">
        <ele>217</ele>
        <time>2026-06-10T15:26:10.042Z</time>
      </trkpt>
      <trkpt lat="32.59634169033934" lon="35.11822823699329">
        <ele>210</ele>
        <time>2026-06-10T15:26:11.042Z</time>
      </trkpt>
      <trkpt lat="32.5958874696361" lon="35.11840518800345">
        <ele>210</ele>
        <time>2026-06-10T15:26:12.042Z</time>
      </trkpt>
      <trkpt lat="32.5958874696361" lon="35.11840518800345">
        <ele>210</ele>
        <time>2026-06-10T15:26:13.042Z</time>
      </trkpt>
      <trkpt lat="32.59585591247356" lon="35.11841748174468">
        <ele>210</ele>
        <time>2026-06-10T15:26:14.042Z</time>
      </trkpt>
      <trkpt lat="32.595823688711754" lon="35.11883154777061">
        <ele>210</ele>
        <time>2026-06-10T15:26:15.042Z</time>
      </trkpt>
      <trkpt lat="32.59578848471765" lon="35.11907425043898">
        <ele>216</ele>
        <time>2026-06-10T15:26:16.042Z</time>
      </trkpt>
      <trkpt lat="32.595565339823786" lon="35.119070525148594">
        <ele>216</ele>
        <time>2026-06-10T15:26:17.042Z</time>
      </trkpt>
      <trkpt lat="32.59505013216399" lon="35.1190617707162">
        <ele>209</ele>
        <time>2026-06-10T15:26:18.042Z</time>
      </trkpt>
      <trkpt lat="32.59489665020026" lon="35.119118022600965">
        <ele>217</ele>
        <time>2026-06-10T15:26:19.042Z</time>
      </trkpt>
      <trkpt lat="32.59425534146105" lon="35.11925213305471">
        <ele>217</ele>
        <time>2026-06-10T15:26:20.042Z</time>
      </trkpt>
      <trkpt lat="32.593705488600705" lon="35.11970550089416">
        <ele>217</ele>
        <time>2026-06-10T15:26:21.042Z</time>
      </trkpt>
      <trkpt lat="32.59329272642641" lon="35.12007896125493">
        <ele>224</ele>
        <time>2026-06-10T15:26:22.042Z</time>
      </trkpt>
      <trkpt lat="32.59314762636604" lon="35.12026727468373">
        <ele>224</ele>
        <time>2026-06-10T15:26:23.042Z</time>
      </trkpt>
      <trkpt lat="32.592912560542956" lon="35.12045279414474">
        <ele>224</ele>
        <time>2026-06-10T15:26:24.042Z</time>
      </trkpt>
      <trkpt lat="32.59274957908875" lon="35.12076348336257">
        <ele>220</ele>
        <time>2026-06-10T15:26:25.042Z</time>
      </trkpt>
      <trkpt lat="32.592626830770676" lon="35.12078397245968">
        <ele>220</ele>
        <time>2026-06-10T15:26:26.042Z</time>
      </trkpt>
      <trkpt lat="32.59243814481284" lon="35.12085195900914">
        <ele>220</ele>
        <time>2026-06-10T15:26:27.042Z</time>
      </trkpt>
      <trkpt lat="32.592310926146304" lon="35.12089796634535">
        <ele>220</ele>
        <time>2026-06-10T15:26:28.042Z</time>
      </trkpt>
      <trkpt lat="32.592224871938484" lon="35.12094788523647">
        <ele>220</ele>
        <time>2026-06-10T15:26:29.042Z</time>
      </trkpt>
      <trkpt lat="32.5921889228863" lon="35.12099091234038">
        <ele>220</ele>
        <time>2026-06-10T15:26:30.042Z</time>
      </trkpt>
      <trkpt lat="32.5921479446921" lon="35.1210838583354">
        <ele>220</ele>
        <time>2026-06-10T15:26:31.042Z</time>
      </trkpt>
      <trkpt lat="32.591902820584984" lon="35.122055972860515">
        <ele>222</ele>
        <time>2026-06-10T15:26:32.042Z</time>
      </trkpt>
      <trkpt lat="32.59185886215848" lon="35.12217071180427">
        <ele>222</ele>
        <time>2026-06-10T15:26:33.042Z</time>
      </trkpt>
      <trkpt lat="32.59175585787943" lon="35.12236498569768">
        <ele>222</ele>
        <time>2026-06-10T15:26:34.042Z</time>
      </trkpt>
      <trkpt lat="32.59163981508404" lon="35.12245681410559">
        <ele>216</ele>
        <time>2026-06-10T15:26:35.042Z</time>
      </trkpt>
      <trkpt lat="32.5915818868186" lon="35.12250226264825">
        <ele>216</ele>
        <time>2026-06-10T15:26:36.042Z</time>
      </trkpt>
      <trkpt lat="32.59134551714388" lon="35.12254528975215">
        <ele>216</ele>
        <time>2026-06-10T15:26:37.042Z</time>
      </trkpt>
      <trkpt lat="32.591186074715544" lon="35.12259874766913">
        <ele>216</ele>
        <time>2026-06-10T15:26:38.042Z</time>
      </trkpt>
      <trkpt lat="32.59116372297325" lon="35.1226130900371">
        <ele>219</ele>
        <time>2026-06-10T15:26:39.042Z</time>
      </trkpt>
      <trkpt lat="32.59113336185664" lon="35.122632647811606">
        <ele>219</ele>
        <time>2026-06-10T15:26:40.042Z</time>
      </trkpt>
      <trkpt lat="32.591038925745465" lon="35.12269225245771">
        <ele>219</ele>
        <time>2026-06-10T15:26:41.042Z</time>
      </trkpt>
      <trkpt lat="32.590940764343905" lon="35.12275409227805">
        <ele>219</ele>
        <time>2026-06-10T15:26:42.042Z</time>
      </trkpt>
      <trkpt lat="32.59079938957392" lon="35.12284163660202">
        <ele>219</ele>
        <time>2026-06-10T15:26:43.042Z</time>
      </trkpt>
      <trkpt lat="32.59068055281074" lon="35.122861194376526">
        <ele>219</ele>
        <time>2026-06-10T15:26:44.042Z</time>
      </trkpt>
      <trkpt lat="32.59053005107932" lon="35.12282748049857">
        <ele>219</ele>
        <time>2026-06-10T15:26:45.042Z</time>
      </trkpt>
      <trkpt lat="32.59041400828393" lon="35.122852439944126">
        <ele>219</ele>
        <time>2026-06-10T15:26:46.042Z</time>
      </trkpt>
      <trkpt lat="32.59019887276438" lon="35.12273434823903">
        <ele>221</ele>
        <time>2026-06-10T15:26:47.042Z</time>
      </trkpt>
      <trkpt lat="32.59002378411644" lon="35.12265704846361">
        <ele>221</ele>
        <time>2026-06-10T15:26:48.042Z</time>
      </trkpt>
      <trkpt lat="32.58982988275207" lon="35.12247972464144">
        <ele>221</ele>
        <time>2026-06-10T15:26:49.042Z</time>
      </trkpt>
      <trkpt lat="32.58963992561437" lon="35.122403773236215">
        <ele>221</ele>
        <time>2026-06-10T15:26:50.042Z</time>
      </trkpt>
      <trkpt lat="32.58963992561437" lon="35.122403773236215">
        <ele>221</ele>
        <time>2026-06-10T15:26:51.042Z</time>
      </trkpt>
      <trkpt lat="32.58937986767396" lon="35.122299793116">
        <ele>221</ele>
        <time>2026-06-10T15:26:52.042Z</time>
      </trkpt>
      <trkpt lat="32.588369941451475" lon="35.12214985017813">
        <ele>222</ele>
        <time>2026-06-10T15:26:53.042Z</time>
      </trkpt>
      <trkpt lat="32.588059997291715" lon="35.122279862812455">
        <ele>222</ele>
        <time>2026-06-10T15:26:54.042Z</time>
      </trkpt>
      <trkpt lat="32.588010264665115" lon="35.12234188889731">
        <ele>222</ele>
        <time>2026-06-10T15:26:55.042Z</time>
      </trkpt>
      <trkpt lat="32.58797487440649" lon="35.12238584732382">
        <ele>222</ele>
        <time>2026-06-10T15:26:56.042Z</time>
      </trkpt>
      <trkpt lat="32.58761985423311" lon="35.12206584488003">
        <ele>227</ele>
        <time>2026-06-10T15:26:57.042Z</time>
      </trkpt>
      <trkpt lat="32.58758912058747" lon="35.12204982613139">
        <ele>227</ele>
        <time>2026-06-10T15:26:58.042Z</time>
      </trkpt>
      <trkpt lat="32.58748183222447" lon="35.12199394677566">
        <ele>227</ele>
        <time>2026-06-10T15:26:59.042Z</time>
      </trkpt>
      <trkpt lat="32.58711079330245" lon="35.12194682185233">
        <ele>227</ele>
        <time>2026-06-10T15:27:00.042Z</time>
      </trkpt>
      <trkpt lat="32.58642086952376" lon="35.12204591457648">
        <ele>232</ele>
        <time>2026-06-10T15:27:01.042Z</time>
      </trkpt>
      <trkpt lat="32.58597495226506" lon="35.12219082837233">
        <ele>238</ele>
        <time>2026-06-10T15:27:02.042Z</time>
      </trkpt>
      <trkpt lat="32.58573597488707" lon="35.12222286586962">
        <ele>238</ele>
        <time>2026-06-10T15:27:03.042Z</time>
      </trkpt>
      <trkpt lat="32.58533699628719" lon="35.1222139251727">
        <ele>240</ele>
        <time>2026-06-10T15:27:04.042Z</time>
      </trkpt>
      <trkpt lat="32.584982907436405" lon="35.122159908462166">
        <ele>240</ele>
        <time>2026-06-10T15:27:05.042Z</time>
      </trkpt>
      <trkpt lat="32.58485978658929" lon="35.1221768585334">
        <ele>240</ele>
        <time>2026-06-10T15:27:06.042Z</time>
      </trkpt>
      <trkpt lat="32.58462490703072" lon="35.12227483367044">
        <ele>240</ele>
        <time>2026-06-10T15:27:07.042Z</time>
      </trkpt>
      <trkpt lat="32.58429354245127" lon="35.12234859442">
        <ele>241</ele>
        <time>2026-06-10T15:27:08.042Z</time>
      </trkpt>
      <trkpt lat="32.584211772327386" lon="35.12266356772177">
        <ele>244</ele>
        <time>2026-06-10T15:27:09.042Z</time>
      </trkpt>
      <trkpt lat="32.58410969937093" lon="35.12300275541103">
        <ele>244</ele>
        <time>2026-06-10T15:27:10.042Z</time>
      </trkpt>
      <trkpt lat="32.58401582205331" lon="35.12324992842786">
        <ele>255</ele>
        <time>2026-06-10T15:27:11.042Z</time>
      </trkpt>
      <trkpt lat="32.58387686872207" lon="35.123501944322186">
        <ele>255</ele>
        <time>2026-06-10T15:27:12.042Z</time>
      </trkpt>
      <trkpt lat="32.58377069794619" lon="35.12362785913709">
        <ele>255</ele>
        <time>2026-06-10T15:27:13.042Z</time>
      </trkpt>
      <trkpt lat="32.58357828669798" lon="35.12396723309086">
        <ele>261</ele>
        <time>2026-06-10T15:27:14.042Z</time>
      </trkpt>
      <trkpt lat="32.58334061317162" lon="35.12449026386046">
        <ele>260</ele>
        <time>2026-06-10T15:27:15.042Z</time>
      </trkpt>
      <trkpt lat="32.583022287108506" lon="35.124993923120066">
        <ele>271</ele>
        <time>2026-06-10T15:27:16.042Z</time>
      </trkpt>
      <trkpt lat="32.58272798916835" lon="35.12545082998538">
        <ele>270</ele>
        <time>2026-06-10T15:27:17.042Z</time>
      </trkpt>
      <trkpt lat="32.58220160563741" lon="35.12530125957656">
        <ele>270</ele>
        <time>2026-06-10T15:27:18.042Z</time>
      </trkpt>
      <trkpt lat="32.582085935371055" lon="35.125338512480376">
        <ele>270</ele>
        <time>2026-06-10T15:27:19.042Z</time>
      </trkpt>
      <trkpt lat="32.58193152208473" lon="35.125444683256255">
        <ele>285</ele>
        <time>2026-06-10T15:27:20.042Z</time>
      </trkpt>
      <trkpt lat="32.581808960031175" lon="35.12549497467641">
        <ele>285</ele>
        <time>2026-06-10T15:27:21.042Z</time>
      </trkpt>
      <trkpt lat="32.5817419048043" lon="35.12546293717912">
        <ele>285</ele>
        <time>2026-06-10T15:27:22.042Z</time>
      </trkpt>
      <trkpt lat="32.58165398795129" lon="35.125381725848804">
        <ele>285</ele>
        <time>2026-06-10T15:27:23.042Z</time>
      </trkpt>
      <trkpt lat="32.581561973278866" lon="35.12524687033699">
        <ele>285</ele>
        <time>2026-06-10T15:27:24.042Z</time>
      </trkpt>
      <trkpt lat="32.58131796675886" lon="35.12498684506834">
        <ele>285</ele>
        <time>2026-06-10T15:27:25.042Z</time>
      </trkpt>
      <trkpt lat="32.5812529604417" lon="35.12502093147533">
        <ele>285</ele>
        <time>2026-06-10T15:27:26.042Z</time>
      </trkpt>
      <trkpt lat="32.581106929058734" lon="35.12502987217225">
        <ele>297</ele>
        <time>2026-06-10T15:27:27.042Z</time>
      </trkpt>
      <trkpt lat="32.580907253494274" lon="35.12510698568315">
        <ele>297</ele>
        <time>2026-06-10T15:27:28.042Z</time>
      </trkpt>
      <trkpt lat="32.58091097878466" lon="35.12518596183924">
        <ele>297</ele>
        <time>2026-06-10T15:27:29.042Z</time>
      </trkpt>
      <trkpt lat="32.58084131585452" lon="35.12532361131885">
        <ele>297</ele>
        <time>2026-06-10T15:27:30.042Z</time>
      </trkpt>
      <trkpt lat="32.580744644569116" lon="35.1253895489586">
        <ele>297</ele>
        <time>2026-06-10T15:27:31.042Z</time>
      </trkpt>
      <trkpt lat="32.58046953187442" lon="35.125436673881936">
        <ele>297</ele>
        <time>2026-06-10T15:27:32.042Z</time>
      </trkpt>
      <trkpt lat="32.5799315999433" lon="35.125580842619705">
        <ele>295</ele>
        <time>2026-06-10T15:27:33.042Z</time>
      </trkpt>
      <trkpt lat="32.57963413550632" lon="35.12570247335067">
        <ele>295</ele>
        <time>2026-06-10T15:27:34.042Z</time>
      </trkpt>
      <trkpt lat="32.57954714997591" lon="35.12571085525403">
        <ele>295</ele>
        <time>2026-06-10T15:27:35.042Z</time>
      </trkpt>
      <trkpt lat="32.57944079293551" lon="35.12520123552981">
        <ele>293</ele>
        <time>2026-06-10T15:27:36.042Z</time>
      </trkpt>
      <trkpt lat="32.57923888219682" lon="35.12459568957826">
        <ele>291</ele>
        <time>2026-06-10T15:27:37.042Z</time>
      </trkpt>
      <trkpt lat="32.57888404828796" lon="35.12343973197281">
        <ele>286</ele>
        <time>2026-06-10T15:27:38.042Z</time>
      </trkpt>
      <trkpt lat="32.57884716791318" lon="35.12327414281534">
        <ele>286</ele>
        <time>2026-06-10T15:27:39.042Z</time>
      </trkpt>
      <trkpt lat="32.578683441400905" lon="35.12307241834117">
        <ele>280</ele>
        <time>2026-06-10T15:27:40.042Z</time>
      </trkpt>
      <trkpt lat="32.57851915609507" lon="35.12281872606617">
        <ele>280</ele>
        <time>2026-06-10T15:27:41.042Z</time>
      </trkpt>
      <trkpt lat="32.578297315052836" lon="35.12255031889417">
        <ele>280</ele>
        <time>2026-06-10T15:27:42.042Z</time>
      </trkpt>
      <trkpt lat="32.57780147890303" lon="35.12211501871307">
        <ele>265</ele>
        <time>2026-06-10T15:27:43.042Z</time>
      </trkpt>
      <trkpt lat="32.57767034868159" lon="35.121937694890896">
        <ele>265</ele>
        <time>2026-06-10T15:27:44.042Z</time>
      </trkpt>
      <trkpt lat="32.57745707580724" lon="35.12155529383321">
        <ele>261</ele>
        <time>2026-06-10T15:27:45.042Z</time>
      </trkpt>
      <trkpt lat="32.577338984102134" lon="35.1213453737202">
        <ele>261</ele>
        <time>2026-06-10T15:27:46.042Z</time>
      </trkpt>
      <trkpt lat="32.577302848785436" lon="35.12135785344298">
        <ele>261</ele>
        <time>2026-06-10T15:27:47.042Z</time>
      </trkpt>
      <trkpt lat="32.57693981923774" lon="35.12148190561269">
        <ele>254</ele>
        <time>2026-06-10T15:27:48.042Z</time>
      </trkpt>
      <trkpt lat="32.57644659079119" lon="35.121715481319626">
        <ele>258</ele>
        <time>2026-06-10T15:27:49.042Z</time>
      </trkpt>
      <trkpt lat="32.57618339902572" lon="35.1217611161268">
        <ele>258</ele>
        <time>2026-06-10T15:27:50.042Z</time>
      </trkpt>
      <trkpt lat="32.576000114738946" lon="35.12170020762906">
        <ele>258</ele>
        <time>2026-06-10T15:27:51.042Z</time>
      </trkpt>
      <trkpt lat="32.575824653561966" lon="35.12157429281416">
        <ele>258</ele>
        <time>2026-06-10T15:27:52.042Z</time>
      </trkpt>
      <trkpt lat="32.57571401243763" lon="35.12145601484454">
        <ele>254</ele>
        <time>2026-06-10T15:27:53.042Z</time>
      </trkpt>
      <trkpt lat="32.57557673548706" lon="35.12136064741077">
        <ele>254</ele>
        <time>2026-06-10T15:27:54.042Z</time>
      </trkpt>
      <trkpt lat="32.57529435847613" lon="35.121326374739255">
        <ele>258</ele>
        <time>2026-06-10T15:27:55.042Z</time>
      </trkpt>
      <trkpt lat="32.57510734889896" lon="35.12142937901831">
        <ele>258</ele>
        <time>2026-06-10T15:27:56.042Z</time>
      </trkpt>
      <trkpt lat="32.57496187630956" lon="35.12143347683773">
        <ele>258</ele>
        <time>2026-06-10T15:27:57.042Z</time>
      </trkpt>
      <trkpt lat="32.57483652028821" lon="35.12143701586359">
        <ele>258</ele>
        <time>2026-06-10T15:27:58.042Z</time>
      </trkpt>
      <trkpt lat="32.57462678643972" lon="35.12131110104869">
        <ele>258</ele>
        <time>2026-06-10T15:27:59.042Z</time>
      </trkpt>
      <trkpt lat="32.57430007847324" lon="35.121053310954274">
        <ele>263</ele>
        <time>2026-06-10T15:28:00.042Z</time>
      </trkpt>
      <trkpt lat="32.574157586116144" lon="35.12094099344926">
        <ele>263</ele>
        <time>2026-06-10T15:28:01.042Z</time>
      </trkpt>
      <trkpt lat="32.5739668512486" lon="35.12086853655134">
        <ele>263</ele>
        <time>2026-06-10T15:28:02.042Z</time>
      </trkpt>
      <trkpt lat="32.57353918976486" lon="35.12085550096443">
        <ele>263</ele>
        <time>2026-06-10T15:28:03.042Z</time>
      </trkpt>
      <trkpt lat="32.57353918976486" lon="35.12085550096443">
        <ele>263</ele>
        <time>2026-06-10T15:28:04.042Z</time>
      </trkpt>
      <trkpt lat="32.57345965296312" lon="35.120853076596255">
        <ele>263</ele>
        <time>2026-06-10T15:28:05.042Z</time>
      </trkpt>
      <trkpt lat="32.573074271673136" lon="35.12092199446832">
        <ele>263</ele>
        <time>2026-06-10T15:28:06.042Z</time>
      </trkpt>
      <trkpt lat="32.572597434504274" lon="35.121059271418886">
        <ele>259</ele>
        <time>2026-06-10T15:28:07.042Z</time>
      </trkpt>
      <trkpt lat="32.572334242738805" lon="35.12106690826417">
        <ele>259</ele>
        <time>2026-06-10T15:28:08.042Z</time>
      </trkpt>
      <trkpt lat="32.5722541489956" lon="35.12104027243794">
        <ele>259</ele>
        <time>2026-06-10T15:28:09.042Z</time>
      </trkpt>
      <trkpt lat="32.57203659203731" lon="35.120925719758695">
        <ele>259</ele>
        <time>2026-06-10T15:28:10.042Z</time>
      </trkpt>
      <trkpt lat="32.57187267926051" lon="35.12076553227229">
        <ele>254</ele>
        <time>2026-06-10T15:28:11.042Z</time>
      </trkpt>
      <trkpt lat="32.57167412128316" lon="35.12055207313341">
        <ele>249</ele>
        <time>2026-06-10T15:28:12.042Z</time>
      </trkpt>
      <trkpt lat="32.57141092951769" lon="35.12030024350361">
        <ele>249</ele>
        <time>2026-06-10T15:28:13.042Z</time>
      </trkpt>
      <trkpt lat="32.571121101925996" lon="35.119930135904184">
        <ele>249</ele>
        <time>2026-06-10T15:28:14.042Z</time>
      </trkpt>
      <trkpt lat="32.57062526577619" lon="35.11929311124891">
        <ele>245</ele>
        <time>2026-06-10T15:28:15.042Z</time>
      </trkpt>
      <trkpt lat="32.57054126047808" lon="35.119167196434006">
        <ele>245</ele>
        <time>2026-06-10T15:28:16.042Z</time>
      </trkpt>
      <trkpt lat="32.570442167753924" lon="35.11903755632872">
        <ele>242</ele>
        <time>2026-06-10T15:28:17.042Z</time>
      </trkpt>
      <trkpt lat="32.57041013025664" lon="35.119009989179894">
        <ele>242</ele>
        <time>2026-06-10T15:28:18.042Z</time>
      </trkpt>
      <trkpt lat="32.570331340365065" lon="35.11894218889495">
        <ele>247</ele>
        <time>2026-06-10T15:28:19.042Z</time>
      </trkpt>
      <trkpt lat="32.57012160651658" lon="35.11873208251742">
        <ele>247</ele>
        <time>2026-06-10T15:28:20.042Z</time>
      </trkpt>
      <trkpt lat="32.56980123154375" lon="35.11849589910722">
        <ele>247</ele>
        <time>2026-06-10T15:28:21.042Z</time>
      </trkpt>
      <trkpt lat="32.569202391114885" lon="35.11811815466251">
        <ele>244</ele>
        <time>2026-06-10T15:28:22.042Z</time>
      </trkpt>
      <trkpt lat="32.568927650949234" lon="35.1179160576593">
        <ele>244</ele>
        <time>2026-06-10T15:28:23.042Z</time>
      </trkpt>
      <trkpt lat="32.56867228229356" lon="35.11770483369465">
        <ele>242</ele>
        <time>2026-06-10T15:28:24.042Z</time>
      </trkpt>
      <trkpt lat="32.5685271822332" lon="35.11755749846006">
        <ele>242</ele>
        <time>2026-06-10T15:28:25.042Z</time>
      </trkpt>
      <trkpt lat="32.568325085229986" lon="35.11738185101856">
        <ele>249</ele>
        <time>2026-06-10T15:28:26.042Z</time>
      </trkpt>
      <trkpt lat="32.56795888918546" lon="35.1170231055548">
        <ele>249</ele>
        <time>2026-06-10T15:28:27.042Z</time>
      </trkpt>
      <trkpt lat="32.56762305425755" lon="35.11663045994857">
        <ele>244</ele>
        <time>2026-06-10T15:28:28.042Z</time>
      </trkpt>
      <trkpt lat="32.56720712558643" lon="35.11592470368575">
        <ele>249</ele>
        <time>2026-06-10T15:28:29.042Z</time>
      </trkpt>
      <trkpt lat="32.56710803286228" lon="35.11545941491707">
        <ele>245</ele>
        <time>2026-06-10T15:28:30.042Z</time>
      </trkpt>
      <trkpt lat="32.56710803286228" lon="35.115352499083116">
        <ele>245</ele>
        <time>2026-06-10T15:28:31.042Z</time>
      </trkpt>
      <trkpt lat="32.56720712558643" lon="35.11497102934803">
        <ele>245</ele>
        <time>2026-06-10T15:28:32.042Z</time>
      </trkpt>
      <trkpt lat="32.5673121787752" lon="35.11443496006209">
        <ele>243</ele>
        <time>2026-06-10T15:28:33.042Z</time>
      </trkpt>
      <trkpt lat="32.56718812660549" lon="35.11397134767409">
        <ele>242</ele>
        <time>2026-06-10T15:28:34.042Z</time>
      </trkpt>
      <trkpt lat="32.56712759063678" lon="35.113793837587394">
        <ele>242</ele>
        <time>2026-06-10T15:28:35.042Z</time>
      </trkpt>
      <trkpt lat="32.567092759171715" lon="35.1137694369354">
        <ele>242</ele>
        <time>2026-06-10T15:28:36.042Z</time>
      </trkpt>
      <trkpt lat="32.56696848355468" lon="35.11353083413472">
        <ele>245</ele>
        <time>2026-06-10T15:28:37.042Z</time>
      </trkpt>
      <trkpt lat="32.56696848355468" lon="35.11353083413472">
        <ele>245</ele>
        <time>2026-06-10T15:28:38.042Z</time>
      </trkpt>
      <trkpt lat="32.567092759171715" lon="35.1137694369354">
        <ele>242</ele>
        <time>2026-06-10T15:28:39.042Z</time>
      </trkpt>
      <trkpt lat="32.56712759063678" lon="35.113793837587394">
        <ele>242</ele>
        <time>2026-06-10T15:28:40.042Z</time>
      </trkpt>
      <trkpt lat="32.56736079381468" lon="35.11350512758281">
        <ele>242</ele>
        <time>2026-06-10T15:28:41.042Z</time>
      </trkpt>
      <trkpt lat="32.56740344838955" lon="35.11346992358871">
        <ele>242</ele>
        <time>2026-06-10T15:28:42.042Z</time>
      </trkpt>
      <trkpt lat="32.567497325707166" lon="35.11349357918263">
        <ele>242</ele>
        <time>2026-06-10T15:28:43.042Z</time>
      </trkpt>
      <trkpt lat="32.56804550218684" lon="35.11404939250758">
        <ele>244</ele>
        <time>2026-06-10T15:28:44.042Z</time>
      </trkpt>
      <trkpt lat="32.568876241941965" lon="35.11460595089061">
        <ele>240</ele>
        <time>2026-06-10T15:28:45.042Z</time>
      </trkpt>
      <trkpt lat="32.56903754701549" lon="35.11473782617013">
        <ele>240</ele>
        <time>2026-06-10T15:28:46.042Z</time>
      </trkpt>
      <trkpt lat="32.5692239977991" lon="35.11481829244237">
        <ele>240</ele>
        <time>2026-06-10T15:28:47.042Z</time>
      </trkpt>
      <trkpt lat="32.56941324255049" lon="35.1148585255785">
        <ele>240</ele>
        <time>2026-06-10T15:28:48.042Z</time>
      </trkpt>
      <trkpt lat="32.56962241760542" lon="35.11484176177178">
        <ele>221</ele>
        <time>2026-06-10T15:28:49.042Z</time>
      </trkpt>
      <trkpt lat="32.569879462641765" lon="35.114670770943256">
        <ele>221</ele>
        <time>2026-06-10T15:28:50.042Z</time>
      </trkpt>
      <trkpt lat="32.5700224303021" lon="35.114500512890686">
        <ele>221</ele>
        <time>2026-06-10T15:28:51.042Z</time>
      </trkpt>
      <trkpt lat="32.5700224303021" lon="35.114500512890686">
        <ele>221</ele>
        <time>2026-06-10T15:28:52.042Z</time>
      </trkpt>
      <trkpt lat="32.57016146712366" lon="35.11433493601535">
        <ele>221</ele>
        <time>2026-06-10T15:28:53.042Z</time>
      </trkpt>
      <trkpt lat="32.5702154838342" lon="35.114263782969054">
        <ele>221</ele>
        <time>2026-06-10T15:28:54.042Z</time>
      </trkpt>
      <trkpt lat="32.570129988419936" lon="35.11413991706386">
        <ele>221</ele>
        <time>2026-06-10T15:28:55.042Z</time>
      </trkpt>
      <trkpt lat="32.569844817441215" lon="35.11394713328661">
        <ele>217</ele>
        <time>2026-06-10T15:28:56.042Z</time>
      </trkpt>
      <trkpt lat="32.56977627209819" lon="35.113750065425414">
        <ele>217</ele>
        <time>2026-06-10T15:28:57.042Z</time>
      </trkpt>
      <trkpt lat="32.569725794413515" lon="35.11338573202608">
        <ele>217</ele>
        <time>2026-06-10T15:28:58.042Z</time>
      </trkpt>
      <trkpt lat="32.5695294716104" lon="35.11279043062308">
        <ele>218</ele>
        <time>2026-06-10T15:28:59.042Z</time>
      </trkpt>
      <trkpt lat="32.569314894884414" lon="35.11249222112802">
        <ele>219</ele>
        <time>2026-06-10T15:29:00.042Z</time>
      </trkpt>
      <trkpt lat="32.569079456532286" lon="35.11209454637977">
        <ele>216</ele>
        <time>2026-06-10T15:29:01.042Z</time>
      </trkpt>
      <trkpt lat="32.56903121402184" lon="35.11209957552179">
        <ele>216</ele>
        <time>2026-06-10T15:29:02.042Z</time>
      </trkpt>
      <trkpt lat="32.568995957807715" lon="35.112103268066456">
        <ele>216</ele>
        <time>2026-06-10T15:29:03.042Z</time>
      </trkpt>
      <trkpt lat="32.568995957807715" lon="35.112103268066456">
        <ele>216</ele>
        <time>2026-06-10T15:29:04.042Z</time>
      </trkpt>
      <trkpt lat="32.56890138765204" lon="35.112113172831684">
        <ele>216</ele>
        <time>2026-06-10T15:29:05.042Z</time>
      </trkpt>
      <trkpt lat="32.568351534791695" lon="35.11212565255446">
        <ele>229</ele>
        <time>2026-06-10T15:29:06.042Z</time>
      </trkpt>
      <trkpt lat="32.56795888918546" lon="35.112175385181054">
        <ele>229</ele>
        <time>2026-06-10T15:29:07.042Z</time>
      </trkpt>
      <trkpt lat="32.567560841908175" lon="35.11211931956081">
        <ele>239</ele>
        <time>2026-06-10T15:29:08.042Z</time>
      </trkpt>
      <trkpt lat="32.56729373858781" lon="35.11202618730127">
        <ele>239</ele>
        <time>2026-06-10T15:29:09.042Z</time>
      </trkpt>
      <trkpt lat="32.56701098904783" lon="35.112218784814004">
        <ele>248</ele>
        <time>2026-06-10T15:29:10.042Z</time>
      </trkpt>
      <trkpt lat="32.566696760804135" lon="35.11252314103819">
        <ele>248</ele>
        <time>2026-06-10T15:29:11.042Z</time>
      </trkpt>
      <trkpt lat="32.566656341403494" lon="35.11252835644473">
        <ele>248</ele>
        <time>2026-06-10T15:29:12.042Z</time>
      </trkpt>
      <trkpt lat="32.56652819141436" lon="35.112544933986925">
        <ele>248</ele>
        <time>2026-06-10T15:29:13.042Z</time>
      </trkpt>
      <trkpt lat="32.566518796928605" lon="35.112488514095936">
        <ele>248</ele>
        <time>2026-06-10T15:29:14.042Z</time>
      </trkpt>
      <trkpt lat="32.566518796928605" lon="35.112488514095936">
        <ele>248</ele>
        <time>2026-06-10T15:29:15.042Z</time>
      </trkpt>
      <trkpt lat="32.56642909869021" lon="35.111949818848444">
        <ele>248</ele>
        <time>2026-06-10T15:29:16.042Z</time>
      </trkpt>
      <trkpt lat="32.566177269060404" lon="35.11038184412677">
        <ele>255</ele>
        <time>2026-06-10T15:29:17.042Z</time>
      </trkpt>
      <trkpt lat="32.56611393912391" lon="35.11017509051059">
        <ele>255</ele>
        <time>2026-06-10T15:29:18.042Z</time>
      </trkpt>
      <trkpt lat="32.566093077497776" lon="35.109978208913915">
        <ele>255</ele>
        <time>2026-06-10T15:29:19.042Z</time>
      </trkpt>
      <trkpt lat="32.56609438134941" lon="35.10967087245742">
        <ele>252</ele>
        <time>2026-06-10T15:29:20.042Z</time>
      </trkpt>
      <trkpt lat="32.56612977160803" lon="35.10957904404951">
        <ele>252</ele>
        <time>2026-06-10T15:29:21.042Z</time>
      </trkpt>
      <trkpt lat="32.566166279453775" lon="35.109536575739156">
        <ele>252</ele>
        <time>2026-06-10T15:29:22.042Z</time>
      </trkpt>
      <trkpt lat="32.5662104241448" lon="35.10950584209351">
        <ele>256</ele>
        <time>2026-06-10T15:29:23.042Z</time>
      </trkpt>
      <trkpt lat="32.56629219426868" lon="35.10950789100322">
        <ele>256</ele>
        <time>2026-06-10T15:29:24.042Z</time>
      </trkpt>
      <trkpt lat="32.56680889204463" lon="35.10963399208264">
        <ele>256</ele>
        <time>2026-06-10T15:29:25.042Z</time>
      </trkpt>
      <trkpt lat="32.56693499312404" lon="35.10962989426322">
        <ele>256</ele>
        <time>2026-06-10T15:29:26.042Z</time>
      </trkpt>
      <trkpt lat="32.56703594849339" lon="35.10960195458536">
        <ele>266</ele>
        <time>2026-06-10T15:29:27.042Z</time>
      </trkpt>
      <trkpt lat="32.56707450524884" lon="35.10959003365613">
        <ele>266</ele>
        <time>2026-06-10T15:29:28.042Z</time>
      </trkpt>
      <trkpt lat="32.567150873701664" lon="35.109478833738244">
        <ele>266</ele>
        <time>2026-06-10T15:29:29.042Z</time>
      </trkpt>
      <trkpt lat="32.567167823772905" lon="35.10935496783305">
        <ele>266</ele>
        <time>2026-06-10T15:29:30.042Z</time>
      </trkpt>
      <trkpt lat="32.567164284747044" lon="35.10920595621778">
        <ele>266</ele>
        <time>2026-06-10T15:29:31.042Z</time>
      </trkpt>
      <trkpt lat="32.5671609319857" lon="35.109067934209136">
        <ele>266</ele>
        <time>2026-06-10T15:29:32.042Z</time>
      </trkpt>
      <trkpt lat="32.56699199006689" lon="35.10830890629386">
        <ele>252</ele>
        <time>2026-06-10T15:29:33.042Z</time>
      </trkpt>
      <trkpt lat="32.56693499312404" lon="35.10817181560781">
        <ele>257</ele>
        <time>2026-06-10T15:29:34.042Z</time>
      </trkpt>
      <trkpt lat="32.56667794808771" lon="35.107800962950314">
        <ele>257</ele>
        <time>2026-06-10T15:29:35.042Z</time>
      </trkpt>
      <trkpt lat="32.566543837633965" lon="35.10755993666261">
        <ele>257</ele>
        <time>2026-06-10T15:29:36.042Z</time>
      </trkpt>
      <trkpt lat="32.56645890101326" lon="35.107280912413025">
        <ele>255</ele>
        <time>2026-06-10T15:29:37.042Z</time>
      </trkpt>
      <trkpt lat="32.56637284680544" lon="35.10686293483219">
        <ele>255</ele>
        <time>2026-06-10T15:29:38.042Z</time>
      </trkpt>
      <trkpt lat="32.56629368438483" lon="35.10665990650639">
        <ele>255</ele>
        <time>2026-06-10T15:29:39.042Z</time>
      </trkpt>
      <trkpt lat="32.56624693199054" lon="35.10659881174413">
        <ele>255</ele>
        <time>2026-06-10T15:29:40.042Z</time>
      </trkpt>
      <trkpt lat="32.566158828873014" lon="35.10653082519466">
        <ele>249</ele>
        <time>2026-06-10T15:29:41.042Z</time>
      </trkpt>
      <trkpt lat="32.56596287859893" lon="35.106458927090294">
        <ele>249</ele>
        <time>2026-06-10T15:29:42.042Z</time>
      </trkpt>
      <trkpt lat="32.56576599700226" lon="35.106356854133836">
        <ele>249</ele>
        <time>2026-06-10T15:29:43.042Z</time>
      </trkpt>
      <trkpt lat="32.565597800141525" lon="35.106207842518565">
        <ele>249</ele>
        <time>2026-06-10T15:29:44.042Z</time>
      </trkpt>
      <trkpt lat="32.565373910189585" lon="35.10595787553395">
        <ele>249</ele>
        <time>2026-06-10T15:29:45.042Z</time>
      </trkpt>
      <trkpt lat="32.565277983962254" lon="35.105822833757614">
        <ele>237</ele>
        <time>2026-06-10T15:29:46.042Z</time>
      </trkpt>
      <trkpt lat="32.56520776223856" lon="35.1056939387104">
        <ele>240</ele>
        <time>2026-06-10T15:29:47.042Z</time>
      </trkpt>
      <trkpt lat="32.56515188288283" lon="35.10553393748851">
        <ele>240</ele>
        <time>2026-06-10T15:29:48.042Z</time>
      </trkpt>
      <trkpt lat="32.565105875546614" lon="35.105250815419495">
        <ele>240</ele>
        <time>2026-06-10T15:29:49.042Z</time>
      </trkpt>
      <trkpt lat="32.565097866172295" lon="35.10519791629608">
        <ele>240</ele>
        <time>2026-06-10T15:29:50.042Z</time>
      </trkpt>
      <trkpt lat="32.5650969348497" lon="35.10508094217809">
        <ele>240</ele>
        <time>2026-06-10T15:29:51.042Z</time>
      </trkpt>
      <trkpt lat="32.56514387350851" lon="35.10469798232685">
        <ele>238</ele>
        <time>2026-06-10T15:29:52.042Z</time>
      </trkpt>
      <trkpt lat="32.565276866375136" lon="35.10401699924507">
        <ele>238</ele>
        <time>2026-06-10T15:29:53.042Z</time>
      </trkpt>
      <trkpt lat="32.565309835195016" lon="35.10371394687252">
        <ele>238</ele>
        <time>2026-06-10T15:29:54.042Z</time>
      </trkpt>
      <trkpt lat="32.56531076651761" lon="35.10311790041144">
        <ele>243</ele>
        <time>2026-06-10T15:29:55.042Z</time>
      </trkpt>
      <trkpt lat="32.56525190692958" lon="35.10284893444588">
        <ele>243</ele>
        <time>2026-06-10T15:29:56.042Z</time>
      </trkpt>
      <trkpt lat="32.56518894952213" lon="35.10272599986328">
        <ele>243</ele>
        <time>2026-06-10T15:29:57.042Z</time>
      </trkpt>
      <trkpt lat="32.56510289531431" lon="35.10261796644221">
        <ele>243</ele>
        <time>2026-06-10T15:29:58.042Z</time>
      </trkpt>
      <trkpt lat="32.56491588573715" lon="35.10243393709735">
        <ele>243</ele>
        <time>2026-06-10T15:29:59.042Z</time>
      </trkpt>
      <trkpt lat="32.564821449625974" lon="35.10236073514135">
        <ele>243</ele>
        <time>2026-06-10T15:30:00.042Z</time>
      </trkpt>
      <trkpt lat="32.564816979277516" lon="35.102266857823736">
        <ele>243</ele>
        <time>2026-06-10T15:30:01.042Z</time>
      </trkpt>
      <trkpt lat="32.56484137992951" lon="35.10154955316073">
        <ele>241</ele>
        <time>2026-06-10T15:30:02.042Z</time>
      </trkpt>
      <trkpt lat="32.56479984294176" lon="35.100745821760874">
        <ele>234</ele>
        <time>2026-06-10T15:30:03.042Z</time>
      </trkpt>
      <trkpt lat="32.56466983030744" lon="35.099985862523">
        <ele>234</ele>
        <time>2026-06-10T15:30:04.042Z</time>
      </trkpt>
      <trkpt lat="32.56446382174933" lon="35.09925998969212">
        <ele>227</ele>
        <time>2026-06-10T15:30:05.042Z</time>
      </trkpt>
      <trkpt lat="32.56437795380603" lon="35.09887181443435">
        <ele>222</ele>
        <time>2026-06-10T15:30:06.042Z</time>
      </trkpt>
      <trkpt lat="32.56424868622978" lon="35.098424965853056">
        <ele>222</ele>
        <time>2026-06-10T15:30:07.042Z</time>
      </trkpt>
      <trkpt lat="32.564047893078204" lon="35.097032824837406">
        <ele>213</ele>
        <time>2026-06-10T15:30:08.042Z</time>
      </trkpt>
      <trkpt lat="32.56403895238129" lon="35.09675696708464">
        <ele>213</ele>
        <time>2026-06-10T15:30:09.042Z</time>
      </trkpt>
      <trkpt lat="32.56401492425833" lon="35.09660087741764">
        <ele>213</ele>
        <time>2026-06-10T15:30:10.042Z</time>
      </trkpt>
      <trkpt lat="32.56401194402602" lon="35.09571686601006">
        <ele>211</ele>
        <time>2026-06-10T15:30:11.042Z</time>
      </trkpt>
      <trkpt lat="32.56414996603466" lon="35.09483788374449">
        <ele>205</ele>
        <time>2026-06-10T15:30:12.042Z</time>
      </trkpt>
      <trkpt lat="32.56416151443485" lon="35.09439531924714">
        <ele>205</ele>
        <time>2026-06-10T15:30:13.042Z</time>
      </trkpt>
      <trkpt lat="32.56415294626697" lon="35.09389184625205">
        <ele>201</ele>
        <time>2026-06-10T15:30:14.042Z</time>
      </trkpt>
      <trkpt lat="32.564084959717505" lon="35.09332969993345">
        <ele>201</ele>
        <time>2026-06-10T15:30:15.042Z</time>
      </trkpt>
      <trkpt lat="32.56407788166578" lon="35.092999825470145">
        <ele>201</ele>
        <time>2026-06-10T15:30:16.042Z</time>
      </trkpt>
      <trkpt lat="32.5640458441685" lon="35.09278189598282">
        <ele>201</ele>
        <time>2026-06-10T15:30:17.042Z</time>
      </trkpt>
      <trkpt lat="32.5640048659743" lon="35.09225681630351">
        <ele>198</ele>
        <time>2026-06-10T15:30:18.042Z</time>
      </trkpt>
      <trkpt lat="32.563863863733346" lon="35.09128693695263">
        <ele>203</ele>
        <time>2026-06-10T15:30:19.042Z</time>
      </trkpt>
      <trkpt lat="32.56378991671927" lon="35.09031985156953">
        <ele>205</ele>
        <time>2026-06-10T15:30:20.042Z</time>
      </trkpt>
      <trkpt lat="32.56377687820294" lon="35.0902434831167">
        <ele>205</ele>
        <time>2026-06-10T15:30:21.042Z</time>
      </trkpt>
      <trkpt lat="32.56353696950235" lon="35.088834950823376">
        <ele>199</ele>
        <time>2026-06-10T15:30:22.042Z</time>
      </trkpt>
      <trkpt lat="32.56353883214754" lon="35.088300930447154">
        <ele>199</ele>
        <time>2026-06-10T15:30:23.042Z</time>
      </trkpt>
      <trkpt lat="32.56360793628412" lon="35.08780490803282">
        <ele>193</ele>
        <time>2026-06-10T15:30:24.042Z</time>
      </trkpt>
      <trkpt lat="32.56366195299466" lon="35.087552333344945">
        <ele>193</ele>
        <time>2026-06-10T15:30:25.042Z</time>
      </trkpt>
      <trkpt lat="32.563676854156185" lon="35.08748285667932">
        <ele>193</ele>
        <time>2026-06-10T15:30:26.042Z</time>
      </trkpt>
      <trkpt lat="32.5639219782633" lon="35.08671693697684">
        <ele>191</ele>
        <time>2026-06-10T15:30:27.042Z</time>
      </trkpt>
      <trkpt lat="32.5640039346517" lon="35.086277911505356">
        <ele>184</ele>
        <time>2026-06-10T15:30:28.042Z</time>
      </trkpt>
      <trkpt lat="32.5640078462066" lon="35.08553285342901">
        <ele>175</ele>
        <time>2026-06-10T15:30:29.042Z</time>
      </trkpt>
      <trkpt lat="32.56397282847701" lon="35.085216948804636">
        <ele>175</ele>
        <time>2026-06-10T15:30:30.042Z</time>
      </trkpt>
      <trkpt lat="32.56397394606413" lon="35.08489694636085">
        <ele>167</ele>
        <time>2026-06-10T15:30:31.042Z</time>
      </trkpt>
      <trkpt lat="32.563935948102234" lon="35.08449591885125">
        <ele>167</ele>
        <time>2026-06-10T15:30:32.042Z</time>
      </trkpt>
      <trkpt lat="32.56393687942483" lon="35.08391980269372">
        <ele>158</ele>
        <time>2026-06-10T15:30:33.042Z</time>
      </trkpt>
      <trkpt lat="32.563897950140344" lon="35.083485992628766">
        <ele>158</ele>
        <time>2026-06-10T15:30:34.042Z</time>
      </trkpt>
      <trkpt lat="32.56365152218159" lon="35.08224807863492">
        <ele>146</ele>
        <time>2026-06-10T15:30:35.042Z</time>
      </trkpt>
      <trkpt lat="32.56361762203912" lon="35.081698970832655">
        <ele>146</ele>
        <time>2026-06-10T15:30:36.042Z</time>
      </trkpt>
      <trkpt lat="32.56361762203912" lon="35.08148458037118">
        <ele>140</ele>
        <time>2026-06-10T15:30:37.042Z</time>
      </trkpt>
      <trkpt lat="32.56364500292342" lon="35.08110758098455">
        <ele>140</ele>
        <time>2026-06-10T15:30:38.042Z</time>
      </trkpt>
      <trkpt lat="32.56368067620398" lon="35.08071082761688">
        <ele>139.5</ele>
        <time>2026-06-10T15:30:39.042Z</time>
      </trkpt>
    </trkseg>
  </trk>
</gpx>